<?xml version="1.0" encoding="UTF-8" standalone="yes"?>
<gpx version="1.1" creator="MagicMaps Tour Explorer"
     xmlns:xsi="http://www.w3.org/2001/XMLSchema-instance"
     xmlns="http://www.topografix.com/GPX/1/1">
  <trk>
    <name>stripsenkopf-feldberg</name>
    <trkseg>
      <trkpt lat="47.580003972" lon="12.331073504">
        <ele>984.5</ele>
      </trkpt>
      <trkpt lat="47.579943238" lon="12.330784008">
        <ele>985.6</ele>
      </trkpt>
      <trkpt lat="47.579777448" lon="12.330233870">
        <ele>985.3</ele>
      </trkpt>
      <trkpt lat="47.579781485" lon="12.330020876">
        <ele>987.2</ele>
      </trkpt>
      <trkpt lat="47.579696879" lon="12.329865590">
        <ele>986.2</ele>
      </trkpt>
      <trkpt lat="47.579606380" lon="12.329843596">
        <ele>984.8</ele>
      </trkpt>
      <trkpt lat="47.579548738" lon="12.329686938">
        <ele>985.5</ele>
      </trkpt>
      <trkpt lat="47.579358132" lon="12.329616842">
        <ele>985.4</ele>
      </trkpt>
      <trkpt lat="47.579226728" lon="12.329384143">
        <ele>987.8</ele>
      </trkpt>
      <trkpt lat="47.579121050" lon="12.329096941">
        <ele>991.7</ele>
      </trkpt>
      <trkpt lat="47.578870623" lon="12.329162882">
        <ele>996.4</ele>
      </trkpt>
      <trkpt lat="47.578860397" lon="12.329110206">
        <ele>997.4</ele>
      </trkpt>
      <trkpt lat="47.578877835" lon="12.328661922">
        <ele>1034.5</ele>
        <time>2020-11-08T07:46:05</time>
      </trkpt>
      <trkpt lat="47.578914128" lon="12.328620264">
        <ele>1033.5</ele>
        <time>2020-11-08T07:46:16</time>
      </trkpt>
      <trkpt lat="47.578953607" lon="12.328341985">
        <ele>1036.0</ele>
        <time>2020-11-08T07:46:43</time>
      </trkpt>
      <trkpt lat="47.578985458" lon="12.327912161">
        <ele>1040.3</ele>
        <time>2020-11-08T07:47:37</time>
      </trkpt>
      <trkpt lat="47.579083359" lon="12.327600606">
        <ele>1045.1</ele>
        <time>2020-11-08T07:48:00</time>
      </trkpt>
      <trkpt lat="47.579210177" lon="12.327510249">
        <ele>1047.5</ele>
        <time>2020-11-08T07:48:16</time>
      </trkpt>
      <trkpt lat="47.579233227" lon="12.327455096">
        <ele>1048.5</ele>
        <time>2020-11-08T07:48:21</time>
      </trkpt>
      <trkpt lat="47.579267845" lon="12.327203723">
        <ele>1051.3</ele>
        <time>2020-11-08T07:48:38</time>
      </trkpt>
      <trkpt lat="47.579397848" lon="12.326822346">
        <ele>1055.7</ele>
        <time>2020-11-08T07:49:09</time>
      </trkpt>
      <trkpt lat="47.579454258" lon="12.326610954">
        <ele>1058.5</ele>
        <time>2020-11-08T07:49:25</time>
      </trkpt>
      <trkpt lat="47.579536066" lon="12.326400485">
        <ele>1061.4</ele>
        <time>2020-11-08T07:49:43</time>
      </trkpt>
      <trkpt lat="47.579581412" lon="12.326199068">
        <ele>1064.3</ele>
        <time>2020-11-08T07:50:02</time>
      </trkpt>
      <trkpt lat="47.579540005" lon="12.325971667">
        <ele>1067.2</ele>
        <time>2020-11-08T07:50:21</time>
      </trkpt>
      <trkpt lat="47.579676546" lon="12.325670756">
        <ele>1070.6</ele>
        <time>2020-11-08T07:50:48</time>
      </trkpt>
      <trkpt lat="47.579666236" lon="12.325536646">
        <ele>1072.5</ele>
        <time>2020-11-08T07:51:02</time>
      </trkpt>
      <trkpt lat="47.579495581" lon="12.325408319">
        <ele>1074.9</ele>
        <time>2020-11-08T07:51:24</time>
      </trkpt>
      <trkpt lat="47.579422323" lon="12.325242944">
        <ele>1076.8</ele>
        <time>2020-11-08T07:51:39</time>
      </trkpt>
      <trkpt lat="47.579591721" lon="12.325039432">
        <ele>1080.7</ele>
        <time>2020-11-08T07:52:07</time>
      </trkpt>
      <trkpt lat="47.579563726" lon="12.324842624">
        <ele>1083.1</ele>
        <time>2020-11-08T07:52:24</time>
      </trkpt>
      <trkpt lat="47.579427688" lon="12.324187411">
        <ele>1091.7</ele>
        <time>2020-11-08T07:53:19</time>
      </trkpt>
      <trkpt lat="47.579405894" lon="12.323826570">
        <ele>1095.6</ele>
        <time>2020-11-08T07:53:45</time>
      </trkpt>
      <trkpt lat="47.579369182" lon="12.323554913">
        <ele>1098.0</ele>
        <time>2020-11-08T07:54:05</time>
      </trkpt>
      <trkpt lat="47.579305479" lon="12.323348215">
        <ele>1100.8</ele>
        <time>2020-11-08T07:54:23</time>
      </trkpt>
      <trkpt lat="47.579204477" lon="12.323172865">
        <ele>1103.7</ele>
        <time>2020-11-08T07:54:42</time>
      </trkpt>
      <trkpt lat="47.579138344" lon="12.322981507">
        <ele>1106.6</ele>
        <time>2020-11-08T07:55:02</time>
      </trkpt>
      <trkpt lat="47.579135159" lon="12.322844965">
        <ele>1109.0</ele>
        <time>2020-11-08T07:55:19</time>
      </trkpt>
      <trkpt lat="47.579157622" lon="12.322790734">
        <ele>1110.0</ele>
        <time>2020-11-08T07:55:32</time>
      </trkpt>
      <trkpt lat="47.579161897" lon="12.322712867">
        <ele>1110.5</ele>
        <time>2020-11-08T07:55:37</time>
      </trkpt>
      <trkpt lat="47.579152342" lon="12.322636088">
        <ele>1111.4</ele>
        <time>2020-11-08T07:55:42</time>
      </trkpt>
      <trkpt lat="47.579065086" lon="12.322715884">
        <ele>1112.9</ele>
        <time>2020-11-08T07:55:54</time>
      </trkpt>
      <trkpt lat="47.578866519" lon="12.323081419">
        <ele>1117.2</ele>
        <time>2020-11-08T07:56:31</time>
      </trkpt>
      <trkpt lat="47.578567704" lon="12.323344359">
        <ele>1123.4</ele>
        <time>2020-11-08T07:57:08</time>
      </trkpt>
      <trkpt lat="47.578500146" lon="12.323550386">
        <ele>1126.3</ele>
        <time>2020-11-08T07:57:27</time>
      </trkpt>
      <trkpt lat="47.578432756" lon="12.323612329">
        <ele>1127.8</ele>
        <time>2020-11-08T07:57:41</time>
      </trkpt>
      <trkpt lat="47.578408364" lon="12.323394734">
        <ele>1130.2</ele>
        <time>2020-11-08T07:58:00</time>
      </trkpt>
      <trkpt lat="47.578351200" lon="12.323193150">
        <ele>1132.6</ele>
        <time>2020-11-08T07:58:19</time>
      </trkpt>
      <trkpt lat="47.578337034" lon="12.322987206">
        <ele>1135.0</ele>
        <time>2020-11-08T07:58:38</time>
      </trkpt>
      <trkpt lat="47.578302249" lon="12.322833063">
        <ele>1137.9</ele>
        <time>2020-11-08T07:58:56</time>
      </trkpt>
      <trkpt lat="47.578200661" lon="12.322797356">
        <ele>1140.7</ele>
        <time>2020-11-08T07:59:13</time>
      </trkpt>
      <trkpt lat="47.578111812" lon="12.322880002">
        <ele>1144.1</ele>
        <time>2020-11-08T07:59:30</time>
      </trkpt>
      <trkpt lat="47.578053139" lon="12.323053256">
        <ele>1146.5</ele>
        <time>2020-11-08T07:59:48</time>
      </trkpt>
      <trkpt lat="47.578028748" lon="12.323260205">
        <ele>1149.4</ele>
        <time>2020-11-08T08:00:09</time>
      </trkpt>
      <trkpt lat="47.577969236" lon="12.323445193">
        <ele>1151.8</ele>
        <time>2020-11-08T08:00:27</time>
      </trkpt>
      <trkpt lat="47.577892793" lon="12.323492887">
        <ele>1153.2</ele>
        <time>2020-11-08T08:02:41</time>
      </trkpt>
      <trkpt lat="47.577761700" lon="12.323678546">
        <ele>1156.1</ele>
        <time>2020-11-08T08:03:13</time>
      </trkpt>
      <trkpt lat="47.577549387" lon="12.323934864">
        <ele>1161.4</ele>
        <time>2020-11-08T08:03:48</time>
      </trkpt>
      <trkpt lat="47.577501107" lon="12.324149944">
        <ele>1163.8</ele>
        <time>2020-11-08T08:04:08</time>
      </trkpt>
      <trkpt lat="47.577426089" lon="12.324587898">
        <ele>1169.6</ele>
        <time>2020-11-08T08:04:41</time>
      </trkpt>
      <trkpt lat="47.577340929" lon="12.324666102">
        <ele>1172.5</ele>
        <time>2020-11-08T08:04:54</time>
      </trkpt>
      <trkpt lat="47.577137835" lon="12.324779844">
        <ele>1176.8</ele>
        <time>2020-11-08T08:05:43</time>
      </trkpt>
      <trkpt lat="47.577020321" lon="12.324886043">
        <ele>1181.6</ele>
        <time>2020-11-08T08:06:11</time>
      </trkpt>
      <trkpt lat="47.577034067" lon="12.324761068">
        <ele>1184.5</ele>
        <time>2020-11-08T08:06:28</time>
      </trkpt>
      <trkpt lat="47.577074384" lon="12.324635172">
        <ele>1187.4</ele>
        <time>2020-11-08T08:06:45</time>
      </trkpt>
      <trkpt lat="47.577111348" lon="12.324585551">
        <ele>1188.8</ele>
        <time>2020-11-08T08:06:58</time>
      </trkpt>
      <trkpt lat="47.577129118" lon="12.324481113">
        <ele>1192.2</ele>
        <time>2020-11-08T08:07:16</time>
      </trkpt>
      <trkpt lat="47.577131465" lon="12.324402407">
        <ele>1194.1</ele>
        <time>2020-11-08T08:07:28</time>
      </trkpt>
      <trkpt lat="47.577062985" lon="12.324243905">
        <ele>1197.9</ele>
        <time>2020-11-08T08:07:53</time>
      </trkpt>
      <trkpt lat="47.577037001" lon="12.324337782">
        <ele>1199.9</ele>
        <time>2020-11-08T08:08:09</time>
      </trkpt>
      <trkpt lat="47.576949578" lon="12.324440125">
        <ele>1203.2</ele>
        <time>2020-11-08T08:08:31</time>
      </trkpt>
      <trkpt lat="47.576860646" lon="12.324511036">
        <ele>1206.1</ele>
        <time>2020-11-08T08:09:11</time>
      </trkpt>
      <trkpt lat="47.576706000" lon="12.324551186">
        <ele>1210.4</ele>
        <time>2020-11-08T08:09:41</time>
      </trkpt>
      <trkpt lat="47.576641794" lon="12.324621426">
        <ele>1212.8</ele>
        <time>2020-11-08T08:09:56</time>
      </trkpt>
      <trkpt lat="47.576652439" lon="12.324381704">
        <ele>1217.7</ele>
        <time>2020-11-08T08:10:31</time>
      </trkpt>
      <trkpt lat="47.576688901" lon="12.324123625">
        <ele>1222.9</ele>
        <time>2020-11-08T08:11:05</time>
      </trkpt>
      <trkpt lat="47.576674987" lon="12.324084900">
        <ele>1223.9</ele>
        <time>2020-11-08T08:11:11</time>
      </trkpt>
      <trkpt lat="47.576614721" lon="12.324165869">
        <ele>1226.3</ele>
        <time>2020-11-08T08:11:31</time>
      </trkpt>
      <trkpt lat="47.576602399" lon="12.323971745">
        <ele>1231.1</ele>
        <time>2020-11-08T08:12:05</time>
      </trkpt>
      <trkpt lat="47.576522855" lon="12.323978031">
        <ele>1234.0</ele>
        <time>2020-11-08T08:12:22</time>
      </trkpt>
      <trkpt lat="47.576554790" lon="12.323854901">
        <ele>1236.4</ele>
        <time>2020-11-08T08:12:39</time>
      </trkpt>
      <trkpt lat="47.576440964" lon="12.323534377">
        <ele>1241.2</ele>
        <time>2020-11-08T08:13:16</time>
      </trkpt>
      <trkpt lat="47.576352451" lon="12.323116623">
        <ele>1247.5</ele>
        <time>2020-11-08T08:14:03</time>
      </trkpt>
      <trkpt lat="47.576358318" lon="12.323022913">
        <ele>1249.4</ele>
        <time>2020-11-08T08:14:16</time>
      </trkpt>
      <trkpt lat="47.576390840" lon="12.322920235">
        <ele>1252.7</ele>
        <time>2020-11-08T08:14:34</time>
      </trkpt>
      <trkpt lat="47.576370053" lon="12.322780173">
        <ele>1255.6</ele>
        <time>2020-11-08T08:14:51</time>
      </trkpt>
      <trkpt lat="47.576316493" lon="12.322710436">
        <ele>1258.0</ele>
        <time>2020-11-08T08:15:07</time>
      </trkpt>
      <trkpt lat="47.576281540" lon="12.322707418">
        <ele>1259.5</ele>
        <time>2020-11-08T08:15:23</time>
      </trkpt>
      <trkpt lat="47.576251198" lon="12.322644386">
        <ele>1261.4</ele>
        <time>2020-11-08T08:15:36</time>
      </trkpt>
      <trkpt lat="47.576320264" lon="12.322539194">
        <ele>1264.8</ele>
        <time>2020-11-08T08:15:55</time>
      </trkpt>
      <trkpt lat="47.576320851" lon="12.322425367">
        <ele>1267.6</ele>
        <time>2020-11-08T08:16:11</time>
      </trkpt>
      <trkpt lat="47.576365694" lon="12.322265273">
        <ele>1270.5</ele>
        <time>2020-11-08T08:16:27</time>
      </trkpt>
      <trkpt lat="47.576430654" lon="12.322189836">
        <ele>1273.4</ele>
        <time>2020-11-08T08:16:40</time>
      </trkpt>
      <trkpt lat="47.576463092" lon="12.321987832">
        <ele>1278.7</ele>
        <time>2020-11-08T08:17:07</time>
      </trkpt>
      <trkpt lat="47.576391092" lon="12.321742075">
        <ele>1284.0</ele>
        <time>2020-11-08T08:17:38</time>
      </trkpt>
      <trkpt lat="47.576177772" lon="12.321581310">
        <ele>1291.2</ele>
        <time>2020-11-08T08:18:26</time>
      </trkpt>
      <trkpt lat="47.575975433" lon="12.321284926">
        <ele>1297.9</ele>
        <time>2020-11-08T08:19:42</time>
      </trkpt>
      <trkpt lat="47.575947102" lon="12.321153162">
        <ele>1299.8</ele>
        <time>2020-11-08T08:19:56</time>
      </trkpt>
      <trkpt lat="47.575977361" lon="12.321075713">
        <ele>1300.3</ele>
        <time>2020-11-08T08:20:12</time>
      </trkpt>
      <trkpt lat="47.576040812" lon="12.320981920">
        <ele>1300.8</ele>
        <time>2020-11-08T08:20:26</time>
      </trkpt>
      <trkpt lat="47.576113818" lon="12.320666425">
        <ele>1304.7</ele>
        <time>2020-11-08T08:21:00</time>
      </trkpt>
      <trkpt lat="47.576219598" lon="12.320365515">
        <ele>1308.5</ele>
        <time>2020-11-08T08:21:31</time>
      </trkpt>
      <trkpt lat="47.576240050" lon="12.320042308">
        <ele>1313.3</ele>
        <time>2020-11-08T08:22:05</time>
      </trkpt>
      <trkpt lat="47.576259831" lon="12.319971733">
        <ele>1314.7</ele>
        <time>2020-11-08T08:22:18</time>
      </trkpt>
      <trkpt lat="47.576350942" lon="12.319935188">
        <ele>1317.1</ele>
        <time>2020-11-08T08:22:33</time>
      </trkpt>
      <trkpt lat="47.576370137" lon="12.319809711">
        <ele>1319.5</ele>
        <time>2020-11-08T08:22:49</time>
      </trkpt>
      <trkpt lat="47.576327305" lon="12.319686664">
        <ele>1322.0</ele>
        <time>2020-11-08T08:23:05</time>
      </trkpt>
      <trkpt lat="47.576327473" lon="12.319588596">
        <ele>1324.3</ele>
        <time>2020-11-08T08:23:21</time>
      </trkpt>
      <trkpt lat="47.576343985" lon="12.319491869">
        <ele>1326.8</ele>
        <time>2020-11-08T08:23:36</time>
      </trkpt>
      <trkpt lat="47.576422524" lon="12.319295565">
        <ele>1331.6</ele>
        <time>2020-11-08T08:24:08</time>
      </trkpt>
      <trkpt lat="47.576474492" lon="12.319031535">
        <ele>1337.3</ele>
        <time>2020-11-08T08:24:45</time>
      </trkpt>
      <trkpt lat="47.576479688" lon="12.318941932">
        <ele>1339.2</ele>
        <time>2020-11-08T08:26:23</time>
      </trkpt>
      <trkpt lat="47.576342141" lon="12.319037234">
        <ele>1341.7</ele>
        <time>2020-11-08T08:27:01</time>
      </trkpt>
      <trkpt lat="47.576257233" lon="12.319037402">
        <ele>1343.6</ele>
        <time>2020-11-08T08:27:16</time>
      </trkpt>
      <trkpt lat="47.576292101" lon="12.318821736">
        <ele>1347.4</ele>
        <time>2020-11-08T08:27:46</time>
      </trkpt>
      <trkpt lat="47.576426296" lon="12.318527447">
        <ele>1355.1</ele>
        <time>2020-11-08T08:28:34</time>
      </trkpt>
      <trkpt lat="47.576435767" lon="12.318350589">
        <ele>1359.4</ele>
        <time>2020-11-08T08:29:05</time>
      </trkpt>
      <trkpt lat="47.576284055" lon="12.318286970">
        <ele>1364.7</ele>
        <time>2020-11-08T08:29:35</time>
      </trkpt>
      <trkpt lat="47.576239547" lon="12.318230644">
        <ele>1366.2</ele>
        <time>2020-11-08T08:29:49</time>
      </trkpt>
      <trkpt lat="47.576181712" lon="12.318082033">
        <ele>1369.5</ele>
        <time>2020-11-08T08:30:08</time>
      </trkpt>
      <trkpt lat="47.576158159" lon="12.317919172">
        <ele>1372.4</ele>
        <time>2020-11-08T08:30:25</time>
      </trkpt>
      <trkpt lat="47.576168636" lon="12.317782464">
        <ele>1374.8</ele>
        <time>2020-11-08T08:30:41</time>
      </trkpt>
      <trkpt lat="47.576219682" lon="12.317655981">
        <ele>1375.8</ele>
        <time>2020-11-08T08:30:54</time>
      </trkpt>
      <trkpt lat="47.576315906" lon="12.317494545">
        <ele>1375.8</ele>
        <time>2020-11-08T08:31:12</time>
      </trkpt>
      <trkpt lat="47.576392684" lon="12.317139823">
        <ele>1380.6</ele>
        <time>2020-11-08T08:31:59</time>
      </trkpt>
      <trkpt lat="47.576454375" lon="12.317053322">
        <ele>1383.0</ele>
        <time>2020-11-08T08:32:15</time>
      </trkpt>
      <trkpt lat="47.576510115" lon="12.316899598">
        <ele>1386.4</ele>
        <time>2020-11-08T08:32:52</time>
      </trkpt>
      <trkpt lat="47.576489914" lon="12.316744197">
        <ele>1388.3</ele>
        <time>2020-11-08T08:33:07</time>
      </trkpt>
      <trkpt lat="47.576435683" lon="12.316649649">
        <ele>1391.2</ele>
        <time>2020-11-08T08:33:31</time>
      </trkpt>
      <trkpt lat="47.576456303" lon="12.316471869">
        <ele>1393.6</ele>
        <time>2020-11-08T08:34:05</time>
      </trkpt>
      <trkpt lat="47.576506259" lon="12.316332562">
        <ele>1396.0</ele>
        <time>2020-11-08T08:34:20</time>
      </trkpt>
      <trkpt lat="47.576488070" lon="12.315979600">
        <ele>1400.8</ele>
        <time>2020-11-08T08:34:54</time>
      </trkpt>
      <trkpt lat="47.576457644" lon="12.315846244">
        <ele>1403.7</ele>
        <time>2020-11-08T08:35:10</time>
      </trkpt>
      <trkpt lat="47.576425876" lon="12.315428741">
        <ele>1410.4</ele>
        <time>2020-11-08T08:35:59</time>
      </trkpt>
      <trkpt lat="47.576372400" lon="12.315292368">
        <ele>1412.8</ele>
        <time>2020-11-08T08:36:18</time>
      </trkpt>
      <trkpt lat="47.576358821" lon="12.315158257">
        <ele>1415.7</ele>
        <time>2020-11-08T08:36:36</time>
      </trkpt>
      <trkpt lat="47.576374831" lon="12.315021884">
        <ele>1418.1</ele>
        <time>2020-11-08T08:36:52</time>
      </trkpt>
      <trkpt lat="47.576354966" lon="12.314861622">
        <ele>1420.0</ele>
        <time>2020-11-08T08:37:09</time>
      </trkpt>
      <trkpt lat="47.576279025" lon="12.314743353">
        <ele>1422.4</ele>
        <time>2020-11-08T08:37:28</time>
      </trkpt>
      <trkpt lat="47.576191435" lon="12.314481251">
        <ele>1428.2</ele>
        <time>2020-11-08T08:38:03</time>
      </trkpt>
      <trkpt lat="47.576138377" lon="12.314258460">
        <ele>1432.5</ele>
        <time>2020-11-08T08:38:34</time>
      </trkpt>
      <trkpt lat="47.576163774" lon="12.314038183">
        <ele>1437.8</ele>
        <time>2020-11-08T08:39:05</time>
      </trkpt>
      <trkpt lat="47.576189842" lon="12.313949252">
        <ele>1439.7</ele>
        <time>2020-11-08T08:39:18</time>
      </trkpt>
      <trkpt lat="47.576256478" lon="12.313828720">
        <ele>1442.1</ele>
        <time>2020-11-08T08:39:35</time>
      </trkpt>
      <trkpt lat="47.576232087" lon="12.313471483">
        <ele>1449.3</ele>
        <time>2020-11-08T08:40:24</time>
      </trkpt>
      <trkpt lat="47.576111890" lon="12.313176859">
        <ele>1455.6</ele>
        <time>2020-11-08T08:41:19</time>
      </trkpt>
      <trkpt lat="47.575994376" lon="12.312850552">
        <ele>1462.8</ele>
        <time>2020-11-08T08:42:06</time>
      </trkpt>
      <trkpt lat="47.575891949" lon="12.312676879">
        <ele>1467.1</ele>
        <time>2020-11-08T08:43:17</time>
      </trkpt>
      <trkpt lat="47.576112896" lon="12.312569171">
        <ele>1473.8</ele>
        <time>2020-11-08T08:44:00</time>
      </trkpt>
      <trkpt lat="47.576274499" lon="12.312544528">
        <ele>1478.2</ele>
        <time>2020-11-08T08:44:51</time>
      </trkpt>
      <trkpt lat="47.576123793" lon="12.312260717">
        <ele>1484.9</ele>
        <time>2020-11-08T08:45:38</time>
      </trkpt>
      <trkpt lat="47.575966884" lon="12.312024012">
        <ele>1491.6</ele>
        <time>2020-11-08T08:46:26</time>
      </trkpt>
      <trkpt lat="47.576323533" lon="12.311959723">
        <ele>1504.6</ele>
        <time>2020-11-08T08:47:56</time>
      </trkpt>
      <trkpt lat="47.576303249" lon="12.311889147">
        <ele>1506.0</ele>
        <time>2020-11-08T08:48:10</time>
      </trkpt>
      <trkpt lat="47.576228818" lon="12.311828211">
        <ele>1508.5</ele>
        <time>2020-11-08T08:48:26</time>
      </trkpt>
      <trkpt lat="47.576177437" lon="12.311739949">
        <ele>1510.8</ele>
        <time>2020-11-08T08:48:43</time>
      </trkpt>
      <trkpt lat="47.576234182" lon="12.311760904">
        <ele>1512.8</ele>
        <time>2020-11-08T08:48:59</time>
      </trkpt>
      <trkpt lat="47.576478180" lon="12.311642216">
        <ele>1520.5</ele>
        <time>2020-11-08T08:49:49</time>
      </trkpt>
      <trkpt lat="47.576452615" lon="12.311570887">
        <ele>1521.9</ele>
        <time>2020-11-08T08:50:03</time>
      </trkpt>
      <trkpt lat="47.576211970" lon="12.311445158">
        <ele>1529.1</ele>
        <time>2020-11-08T08:51:01</time>
      </trkpt>
      <trkpt lat="47.576310374" lon="12.311404757">
        <ele>1531.5</ele>
        <time>2020-11-08T08:51:18</time>
      </trkpt>
      <trkpt lat="47.576389499" lon="12.311338456">
        <ele>1533.9</ele>
        <time>2020-11-08T08:51:35</time>
      </trkpt>
      <trkpt lat="47.576485220" lon="12.311334182">
        <ele>1536.3</ele>
        <time>2020-11-08T08:51:52</time>
      </trkpt>
      <trkpt lat="47.576515311" lon="12.311285986">
        <ele>1537.8</ele>
        <time>2020-11-08T08:52:04</time>
      </trkpt>
      <trkpt lat="47.576367957" lon="12.311180793">
        <ele>1542.6</ele>
        <time>2020-11-08T08:52:34</time>
      </trkpt>
      <trkpt lat="47.576286821" lon="12.311109714">
        <ele>1544.5</ele>
        <time>2020-11-08T08:52:50</time>
      </trkpt>
      <trkpt lat="47.576125637" lon="12.311024303">
        <ele>1548.8</ele>
        <time>2020-11-08T08:53:20</time>
      </trkpt>
      <trkpt lat="47.575991610" lon="12.310869740">
        <ele>1554.1</ele>
        <time>2020-11-08T08:53:54</time>
      </trkpt>
      <trkpt lat="47.575865546" lon="12.311044671">
        <ele>1558.4</ele>
        <time>2020-11-08T08:54:45</time>
      </trkpt>
      <trkpt lat="47.575967219" lon="12.310935790">
        <ele>1560.4</ele>
        <time>2020-11-08T08:55:15</time>
      </trkpt>
      <trkpt lat="47.576112393" lon="12.310852474">
        <ele>1561.8</ele>
        <time>2020-11-08T08:55:29</time>
      </trkpt>
      <trkpt lat="47.576196967" lon="12.310741916">
        <ele>1564.2</ele>
        <time>2020-11-08T08:55:45</time>
      </trkpt>
      <trkpt lat="47.576143993" lon="12.310741581">
        <ele>1566.6</ele>
        <time>2020-11-08T08:56:00</time>
      </trkpt>
      <trkpt lat="47.576178191" lon="12.310787179">
        <ele>1569.0</ele>
        <time>2020-11-08T08:56:18</time>
      </trkpt>
      <trkpt lat="47.576233763" lon="12.310692631">
        <ele>1571.4</ele>
        <time>2020-11-08T08:56:35</time>
      </trkpt>
      <trkpt lat="47.576471139" lon="12.310674777">
        <ele>1577.2</ele>
        <time>2020-11-08T08:57:18</time>
      </trkpt>
      <trkpt lat="47.576661408" lon="12.310749795">
        <ele>1582.0</ele>
        <time>2020-11-08T08:57:52</time>
      </trkpt>
      <trkpt lat="47.576735336" lon="12.310648207">
        <ele>1584.4</ele>
        <time>2020-11-08T08:58:08</time>
      </trkpt>
      <trkpt lat="47.576827118" lon="12.310407897">
        <ele>1589.2</ele>
        <time>2020-11-08T08:58:39</time>
      </trkpt>
      <trkpt lat="47.576892246" lon="12.310394067">
        <ele>1591.6</ele>
        <time>2020-11-08T08:58:58</time>
      </trkpt>
      <trkpt lat="47.576881349" lon="12.310364982">
        <ele>1591.6</ele>
        <time>2020-11-08T08:59:13</time>
      </trkpt>
      <trkpt lat="47.576937089" lon="12.310405551">
        <ele>1587.8</ele>
        <time>2020-11-08T09:00:39</time>
      </trkpt>
      <trkpt lat="47.577035995" lon="12.310372442">
        <ele>1590.6</ele>
        <time>2020-11-08T09:00:56</time>
      </trkpt>
      <trkpt lat="47.577029960" lon="12.310361294">
        <ele>1590.6</ele>
        <time>2020-11-08T09:01:21</time>
      </trkpt>
      <trkpt lat="47.577051669" lon="12.310394067">
        <ele>1590.6</ele>
        <time>2020-11-08T09:01:26</time>
      </trkpt>
      <trkpt lat="47.577191396" lon="12.310445029">
        <ele>1593.0</ele>
        <time>2020-11-08T09:01:43</time>
      </trkpt>
      <trkpt lat="47.577222074" lon="12.310432959">
        <ele>1593.5</ele>
        <time>2020-11-08T09:01:46</time>
      </trkpt>
      <trkpt lat="47.577379234" lon="12.310249144">
        <ele>1595.5</ele>
        <time>2020-11-08T09:02:04</time>
      </trkpt>
      <trkpt lat="47.577448888" lon="12.310200110">
        <ele>1596.4</ele>
        <time>2020-11-08T09:02:19</time>
      </trkpt>
      <trkpt lat="47.577523319" lon="12.310251407">
        <ele>1596.9</ele>
        <time>2020-11-08T09:02:29</time>
      </trkpt>
      <trkpt lat="47.577720294" lon="12.310275547">
        <ele>1599.3</ele>
        <time>2020-11-08T09:02:49</time>
      </trkpt>
      <trkpt lat="47.578063197" lon="12.310238918">
        <ele>1603.6</ele>
        <time>2020-11-08T09:03:27</time>
      </trkpt>
      <trkpt lat="47.578260927" lon="12.310391469">
        <ele>1603.6</ele>
        <time>2020-11-08T09:03:48</time>
      </trkpt>
      <trkpt lat="47.578313816" lon="12.310377387">
        <ele>1604.6</ele>
        <time>2020-11-08T09:03:57</time>
      </trkpt>
      <trkpt lat="47.578365617" lon="12.310349224">
        <ele>1606.0</ele>
        <time>2020-11-08T09:04:11</time>
      </trkpt>
      <trkpt lat="47.578359414" lon="12.310338412">
        <ele>1606.0</ele>
        <time>2020-11-08T09:06:52</time>
      </trkpt>
      <trkpt lat="47.578452453" lon="12.310499847">
        <ele>1606.5</ele>
        <time>2020-11-08T09:09:16</time>
      </trkpt>
      <trkpt lat="47.578499895" lon="12.310469253">
        <ele>1606.5</ele>
        <time>2020-11-08T09:09:29</time>
      </trkpt>
      <trkpt lat="47.578514647" lon="12.310236320">
        <ele>1613.2</ele>
        <time>2020-11-08T09:09:52</time>
      </trkpt>
      <trkpt lat="47.578554880" lon="12.310194662">
        <ele>1615.6</ele>
        <time>2020-11-08T09:10:07</time>
      </trkpt>
      <trkpt lat="47.578601483" lon="12.310315948">
        <ele>1618.0</ele>
        <time>2020-11-08T09:10:22</time>
      </trkpt>
      <trkpt lat="47.578649763" lon="12.310379902">
        <ele>1620.4</ele>
        <time>2020-11-08T09:10:36</time>
      </trkpt>
      <trkpt lat="47.578684464" lon="12.310317708">
        <ele>1621.9</ele>
        <time>2020-11-08T09:10:50</time>
      </trkpt>
      <trkpt lat="47.578715561" lon="12.310203798">
        <ele>1624.8</ele>
        <time>2020-11-08T09:11:05</time>
      </trkpt>
      <trkpt lat="47.578788064" lon="12.310209414">
        <ele>1627.7</ele>
        <time>2020-11-08T09:11:22</time>
      </trkpt>
      <trkpt lat="47.578829220" lon="12.310137413">
        <ele>1630.5</ele>
        <time>2020-11-08T09:11:57</time>
      </trkpt>
      <trkpt lat="47.578850677" lon="12.310174880">
        <ele>1630.5</ele>
        <time>2020-11-08T09:12:32</time>
      </trkpt>
      <trkpt lat="47.578928210" lon="12.310045548">
        <ele>1634.9</ele>
        <time>2020-11-08T09:12:59</time>
      </trkpt>
      <trkpt lat="47.579114875" lon="12.309940439">
        <ele>1639.2</ele>
        <time>2020-11-08T09:13:29</time>
      </trkpt>
      <trkpt lat="47.579157790" lon="12.309956280">
        <ele>1641.6</ele>
        <time>2020-11-08T09:13:45</time>
      </trkpt>
      <trkpt lat="47.579198610" lon="12.309934571">
        <ele>1644.0</ele>
        <time>2020-11-08T09:13:58</time>
      </trkpt>
      <trkpt lat="47.579222582" lon="12.310014451">
        <ele>1647.8</ele>
        <time>2020-11-08T09:14:45</time>
      </trkpt>
      <trkpt lat="47.579262061" lon="12.310030460">
        <ele>1649.3</ele>
        <time>2020-11-08T09:15:01</time>
      </trkpt>
      <trkpt lat="47.579341857" lon="12.310153926">
        <ele>1654.6</ele>
        <time>2020-11-08T09:15:31</time>
      </trkpt>
      <trkpt lat="47.579415534" lon="12.310140431">
        <ele>1659.8</ele>
        <time>2020-11-08T09:16:00</time>
      </trkpt>
      <trkpt lat="47.579473956" lon="12.309978828">
        <ele>1663.2</ele>
        <time>2020-11-08T09:16:27</time>
      </trkpt>
      <trkpt lat="47.579639582" lon="12.309936751">
        <ele>1665.6</ele>
        <time>2020-11-08T09:17:41</time>
      </trkpt>
      <trkpt lat="47.579687778" lon="12.309867851">
        <ele>1666.6</ele>
        <time>2020-11-08T09:18:03</time>
      </trkpt>
      <trkpt lat="47.579808226" lon="12.309813201">
        <ele>1670.4</ele>
        <time>2020-11-08T09:18:34</time>
      </trkpt>
      <trkpt lat="47.579867318" lon="12.309890902">
        <ele>1673.8</ele>
        <time>2020-11-08T09:18:49</time>
      </trkpt>
      <trkpt lat="47.580012074" lon="12.310004979">
        <ele>1678.1</ele>
        <time>2020-11-08T09:19:19</time>
      </trkpt>
      <trkpt lat="47.580048535" lon="12.310072705">
        <ele>1681.0</ele>
        <time>2020-11-08T09:19:34</time>
      </trkpt>
      <trkpt lat="47.580094971" lon="12.310017385">
        <ele>1686.3</ele>
        <time>2020-11-08T09:20:06</time>
      </trkpt>
      <trkpt lat="47.580084661" lon="12.310002716">
        <ele>1686.8</ele>
        <time>2020-11-08T09:27:35</time>
      </trkpt>
      <trkpt lat="47.580104023" lon="12.310004225">
        <ele>1686.8</ele>
        <time>2020-11-08T09:30:04</time>
      </trkpt>
      <trkpt lat="47.580143334" lon="12.310025012">
        <ele>1686.8</ele>
        <time>2020-11-08T09:30:19</time>
      </trkpt>
      <trkpt lat="47.580154398" lon="12.309979498">
        <ele>1686.8</ele>
        <time>2020-11-08T09:30:32</time>
      </trkpt>
      <trkpt lat="47.580186501" lon="12.309990479">
        <ele>1686.8</ele>
        <time>2020-11-08T09:30:42</time>
      </trkpt>
      <trkpt lat="47.580299238" lon="12.309964159">
        <ele>1696.4</ele>
        <time>2020-11-08T09:31:24</time>
      </trkpt>
      <trkpt lat="47.580433432" lon="12.309988299">
        <ele>1699.8</ele>
        <time>2020-11-08T09:31:57</time>
      </trkpt>
      <trkpt lat="47.580368137" lon="12.309843460">
        <ele>1704.5</ele>
        <time>2020-11-08T09:32:24</time>
      </trkpt>
      <trkpt lat="47.580398144" lon="12.309807669">
        <ele>1707.0</ele>
        <time>2020-11-08T09:32:39</time>
      </trkpt>
      <trkpt lat="47.580402503" lon="12.309622765">
        <ele>1710.3</ele>
        <time>2020-11-08T09:33:07</time>
      </trkpt>
      <trkpt lat="47.580454638" lon="12.309530983">
        <ele>1711.3</ele>
        <time>2020-11-08T09:33:22</time>
      </trkpt>
      <trkpt lat="47.580509204" lon="12.309503909">
        <ele>1712.7</ele>
        <time>2020-11-08T09:33:36</time>
      </trkpt>
      <trkpt lat="47.580536948" lon="12.309430316">
        <ele>1715.6</ele>
        <time>2020-11-08T09:33:50</time>
      </trkpt>
      <trkpt lat="47.580587491" lon="12.309393184">
        <ele>1718.0</ele>
        <time>2020-11-08T09:34:03</time>
      </trkpt>
      <trkpt lat="47.580709532" lon="12.309437441">
        <ele>1726.2</ele>
        <time>2020-11-08T09:34:48</time>
      </trkpt>
      <trkpt lat="47.580791758" lon="12.309510615">
        <ele>1734.8</ele>
        <time>2020-11-08T09:35:34</time>
      </trkpt>
      <trkpt lat="47.580880188" lon="12.309497707">
        <ele>1739.2</ele>
        <time>2020-11-08T09:36:06</time>
      </trkpt>
      <trkpt lat="47.580863005" lon="12.309536850">
        <ele>1740.6</ele>
        <time>2020-11-08T09:36:29</time>
      </trkpt>
      <trkpt lat="47.580724703" lon="12.309682025">
        <ele>1745.9</ele>
        <time>2020-11-08T09:38:21</time>
      </trkpt>
      <trkpt lat="47.580693690" lon="12.309603402">
        <ele>1745.4</ele>
        <time>2020-11-08T09:39:35</time>
      </trkpt>
      <trkpt lat="47.580675837" lon="12.309611868">
        <ele>1745.4</ele>
        <time>2020-11-08T09:40:04</time>
      </trkpt>
      <trkpt lat="47.580665527" lon="12.309628800">
        <ele>1745.4</ele>
        <time>2020-11-08T09:40:16</time>
      </trkpt>
      <trkpt lat="47.580683213" lon="12.309649671">
        <ele>1748.3</ele>
        <time>2020-11-08T09:44:26</time>
      </trkpt>
      <trkpt lat="47.580677094" lon="12.309627458">
        <ele>1748.3</ele>
        <time>2020-11-08T09:45:05</time>
      </trkpt>
      <trkpt lat="47.580704503" lon="12.309634164">
        <ele>1744.0</ele>
        <time>2020-11-08T09:46:01</time>
      </trkpt>
      <trkpt lat="47.580698552" lon="12.309601642">
        <ele>1744.5</ele>
        <time>2020-11-08T09:46:16</time>
      </trkpt>
      <trkpt lat="47.580696205" lon="12.309643636">
        <ele>1744.9</ele>
        <time>2020-11-08T09:48:03</time>
      </trkpt>
      <trkpt lat="47.580712130" lon="12.309682863">
        <ele>1744.9</ele>
        <time>2020-11-08T09:48:20</time>
      </trkpt>
      <trkpt lat="47.580761164" lon="12.309663836">
        <ele>1744.9</ele>
        <time>2020-11-08T09:49:12</time>
      </trkpt>
      <trkpt lat="47.580910195" lon="12.309444901">
        <ele>1739.2</ele>
        <time>2020-11-08T09:50:39</time>
      </trkpt>
      <trkpt lat="47.580948668" lon="12.309253542">
        <ele>1739.6</ele>
        <time>2020-11-08T09:50:56</time>
      </trkpt>
      <trkpt lat="47.580996193" lon="12.309188582">
        <ele>1742.5</ele>
        <time>2020-11-08T09:51:11</time>
      </trkpt>
      <trkpt lat="47.581006168" lon="12.309126137">
        <ele>1744.9</ele>
        <time>2020-11-08T09:51:25</time>
      </trkpt>
      <trkpt lat="47.580998121" lon="12.308989763">
        <ele>1747.8</ele>
        <time>2020-11-08T09:51:42</time>
      </trkpt>
      <trkpt lat="47.581037683" lon="12.309007784">
        <ele>1749.7</ele>
        <time>2020-11-08T09:51:57</time>
      </trkpt>
      <trkpt lat="47.581072971" lon="12.308912817">
        <ele>1753.6</ele>
        <time>2020-11-08T09:52:24</time>
      </trkpt>
      <trkpt lat="47.581102643" lon="12.308892533">
        <ele>1756.0</ele>
        <time>2020-11-08T09:52:40</time>
      </trkpt>
      <trkpt lat="47.581172213" lon="12.308892282">
        <ele>1760.3</ele>
        <time>2020-11-08T09:53:07</time>
      </trkpt>
      <trkpt lat="47.581284698" lon="12.308812821">
        <ele>1764.2</ele>
        <time>2020-11-08T09:53:59</time>
      </trkpt>
      <trkpt lat="47.581424592" lon="12.308819191">
        <ele>1769.0</ele>
        <time>2020-11-08T09:54:31</time>
      </trkpt>
      <trkpt lat="47.581512686" lon="12.308845678">
        <ele>1771.4</ele>
        <time>2020-11-08T09:54:46</time>
      </trkpt>
      <trkpt lat="47.581690634" lon="12.308840146">
        <ele>1775.7</ele>
        <time>2020-11-08T09:55:17</time>
      </trkpt>
      <trkpt lat="47.581747128" lon="12.308861185">
        <ele>1778.1</ele>
        <time>2020-11-08T09:55:32</time>
      </trkpt>
      <trkpt lat="47.581772106" lon="12.308835452">
        <ele>1780.0</ele>
        <time>2020-11-08T09:55:44</time>
      </trkpt>
      <trkpt lat="47.581739249" lon="12.308721207">
        <ele>1786.3</ele>
        <time>2020-11-08T09:56:15</time>
      </trkpt>
      <trkpt lat="47.581794402" lon="12.308748951">
        <ele>1788.2</ele>
        <time>2020-11-08T09:56:28</time>
      </trkpt>
      <trkpt lat="47.581824912" lon="12.308692206">
        <ele>1790.1</ele>
        <time>2020-11-08T09:56:44</time>
      </trkpt>
      <trkpt lat="47.581777051" lon="12.308645686">
        <ele>1792.5</ele>
        <time>2020-11-08T09:56:59</time>
      </trkpt>
      <trkpt lat="47.582107885" lon="12.308509648">
        <ele>1806.9</ele>
        <time>2020-11-08T09:58:39</time>
      </trkpt>
      <trkpt lat="47.582180221" lon="12.308508642">
        <ele>1810.8</ele>
        <time>2020-11-08T09:59:07</time>
      </trkpt>
      <trkpt lat="47.582195979" lon="12.308457429">
        <ele>1812.2</ele>
        <time>2020-11-08T09:59:21</time>
      </trkpt>
      <trkpt lat="47.582143927" lon="12.308379561">
        <ele>1814.2</ele>
        <time>2020-11-08T09:59:36</time>
      </trkpt>
      <trkpt lat="47.582077123" lon="12.308325665">
        <ele>1818.0</ele>
        <time>2020-11-08T10:00:15</time>
      </trkpt>
      <trkpt lat="47.582006128" lon="12.308334717">
        <ele>1820.4</ele>
        <time>2020-11-08T10:00:45</time>
      </trkpt>
      <trkpt lat="47.581963465" lon="12.308247294">
        <ele>1820.4</ele>
        <time>2020-11-08T10:01:16</time>
      </trkpt>
      <trkpt lat="47.582063964" lon="12.308355588">
        <ele>1818.0</ele>
        <time>2020-11-08T10:01:57</time>
      </trkpt>
      <trkpt lat="47.582100174" lon="12.308367575">
        <ele>1815.1</ele>
        <time>2020-11-08T10:02:24</time>
      </trkpt>
      <trkpt lat="47.582095731" lon="12.308320887">
        <ele>1815.1</ele>
        <time>2020-11-08T10:02:37</time>
      </trkpt>
      <trkpt lat="47.582092797" lon="12.308340082">
        <ele>1815.6</ele>
        <time>2020-11-08T10:02:55</time>
      </trkpt>
      <trkpt lat="47.582207043" lon="12.308460697">
        <ele>1810.3</ele>
        <time>2020-11-08T10:04:10</time>
      </trkpt>
      <trkpt lat="47.582192793" lon="12.308457680">
        <ele>1810.3</ele>
        <time>2020-11-08T10:04:28</time>
      </trkpt>
      <trkpt lat="47.582212575" lon="12.308493303">
        <ele>1811.3</ele>
        <time>2020-11-08T10:04:57</time>
      </trkpt>
      <trkpt lat="47.582212156" lon="12.308476288">
        <ele>1811.3</ele>
        <time>2020-11-08T10:05:48</time>
      </trkpt>
      <trkpt lat="47.582196733" lon="12.308487771">
        <ele>1811.3</ele>
        <time>2020-11-08T10:06:09</time>
      </trkpt>
      <trkpt lat="47.582210563" lon="12.308480814">
        <ele>1811.3</ele>
        <time>2020-11-08T10:06:38</time>
      </trkpt>
      <trkpt lat="47.582195560" lon="12.308450052">
        <ele>1811.3</ele>
        <time>2020-11-08T10:08:31</time>
      </trkpt>
      <trkpt lat="47.582296394" lon="12.308616936">
        <ele>1811.3</ele>
        <time>2020-11-08T10:09:16</time>
      </trkpt>
      <trkpt lat="47.582360683" lon="12.308626995">
        <ele>1807.9</ele>
        <time>2020-11-08T10:09:27</time>
      </trkpt>
      <trkpt lat="47.582413657" lon="12.308664797">
        <ele>1805.0</ele>
        <time>2020-11-08T10:09:46</time>
      </trkpt>
      <trkpt lat="47.582482891" lon="12.308843499">
        <ele>1803.6</ele>
        <time>2020-11-08T10:10:59</time>
      </trkpt>
      <trkpt lat="47.582485909" lon="12.308899909">
        <ele>1803.6</ele>
        <time>2020-11-08T10:11:19</time>
      </trkpt>
      <trkpt lat="47.582442155" lon="12.308943914">
        <ele>1801.2</ele>
        <time>2020-11-08T10:11:41</time>
      </trkpt>
      <trkpt lat="47.582488507" lon="12.309044078">
        <ele>1797.8</ele>
        <time>2020-11-08T10:11:54</time>
      </trkpt>
      <trkpt lat="47.582506444" lon="12.309174752">
        <ele>1795.4</ele>
        <time>2020-11-08T10:12:08</time>
      </trkpt>
      <trkpt lat="47.582535529" lon="12.309256140">
        <ele>1793.0</ele>
        <time>2020-11-08T10:12:22</time>
      </trkpt>
      <trkpt lat="47.582595293" lon="12.309239125">
        <ele>1790.6</ele>
        <time>2020-11-08T10:12:35</time>
      </trkpt>
      <trkpt lat="47.582613900" lon="12.309258990">
        <ele>1789.6</ele>
        <time>2020-11-08T10:12:49</time>
      </trkpt>
      <trkpt lat="47.582598142" lon="12.309330068">
        <ele>1786.8</ele>
        <time>2020-11-08T10:13:19</time>
      </trkpt>
      <trkpt lat="47.582564950" lon="12.309375918">
        <ele>1784.8</ele>
        <time>2020-11-08T10:13:37</time>
      </trkpt>
      <trkpt lat="47.582576433" lon="12.309413636">
        <ele>1783.4</ele>
        <time>2020-11-08T10:13:50</time>
      </trkpt>
      <trkpt lat="47.582631670" lon="12.309453366">
        <ele>1779.5</ele>
        <time>2020-11-08T10:14:18</time>
      </trkpt>
      <trkpt lat="47.582660252" lon="12.309499802">
        <ele>1777.1</ele>
        <time>2020-11-08T10:14:33</time>
      </trkpt>
      <trkpt lat="47.582715908" lon="12.309635505">
        <ele>1769.0</ele>
        <time>2020-11-08T10:15:13</time>
      </trkpt>
      <trkpt lat="47.582715908" lon="12.309776070">
        <ele>1764.2</ele>
        <time>2020-11-08T10:15:37</time>
      </trkpt>
      <trkpt lat="47.582830489" lon="12.309975224">
        <ele>1757.9</ele>
        <time>2020-11-08T10:16:17</time>
      </trkpt>
      <trkpt lat="47.582807606" lon="12.310084691">
        <ele>1753.1</ele>
        <time>2020-11-08T10:16:42</time>
      </trkpt>
      <trkpt lat="47.582683889" lon="12.309990814">
        <ele>1748.8</ele>
        <time>2020-11-08T10:17:11</time>
      </trkpt>
      <trkpt lat="47.582667880" lon="12.310023587">
        <ele>1746.8</ele>
        <time>2020-11-08T10:17:27</time>
      </trkpt>
      <trkpt lat="47.582744574" lon="12.310191644">
        <ele>1743.5</ele>
        <time>2020-11-08T10:17:49</time>
      </trkpt>
      <trkpt lat="47.582893688" lon="12.310454249">
        <ele>1737.2</ele>
        <time>2020-11-08T10:18:37</time>
      </trkpt>
      <trkpt lat="47.582900897" lon="12.310501691">
        <ele>1734.4</ele>
        <time>2020-11-08T10:18:50</time>
      </trkpt>
      <trkpt lat="47.582866112" lon="12.310558185">
        <ele>1732.0</ele>
        <time>2020-11-08T10:19:04</time>
      </trkpt>
      <trkpt lat="47.582957894" lon="12.310583498">
        <ele>1730.0</ele>
        <time>2020-11-08T10:19:21</time>
      </trkpt>
      <trkpt lat="47.583105750" lon="12.310929922">
        <ele>1722.8</ele>
        <time>2020-11-08T10:20:17</time>
      </trkpt>
      <trkpt lat="47.583191832" lon="12.311087670">
        <ele>1721.4</ele>
        <time>2020-11-08T10:20:30</time>
      </trkpt>
      <trkpt lat="47.583306665" lon="12.311404422">
        <ele>1718.5</ele>
        <time>2020-11-08T10:20:57</time>
      </trkpt>
      <trkpt lat="47.583362153" lon="12.311670128">
        <ele>1714.2</ele>
        <time>2020-11-08T10:21:29</time>
      </trkpt>
      <trkpt lat="47.583369445" lon="12.311777249">
        <ele>1711.8</ele>
        <time>2020-11-08T10:21:40</time>
      </trkpt>
      <trkpt lat="47.583602127" lon="12.312155943">
        <ele>1705.5</ele>
        <time>2020-11-08T10:23:30</time>
      </trkpt>
      <trkpt lat="47.583686449" lon="12.312185783">
        <ele>1705.0</ele>
        <time>2020-11-08T10:23:57</time>
      </trkpt>
      <trkpt lat="47.583742859" lon="12.312239176">
        <ele>1704.5</ele>
        <time>2020-11-08T10:24:03</time>
      </trkpt>
      <trkpt lat="47.583825588" lon="12.312561711">
        <ele>1706.0</ele>
        <time>2020-11-08T10:24:35</time>
      </trkpt>
      <trkpt lat="47.583995825" lon="12.312979549">
        <ele>1707.4</ele>
        <time>2020-11-08T10:25:10</time>
      </trkpt>
      <trkpt lat="47.584075956" lon="12.313008551">
        <ele>1705.0</ele>
        <time>2020-11-08T10:25:20</time>
      </trkpt>
      <trkpt lat="47.584222807" lon="12.313001175">
        <ele>1698.8</ele>
        <time>2020-11-08T10:25:50</time>
      </trkpt>
      <trkpt lat="47.584237810" lon="12.312855413">
        <ele>1696.4</ele>
        <time>2020-11-08T10:26:05</time>
      </trkpt>
      <trkpt lat="47.584295394" lon="12.312779976">
        <ele>1694.0</ele>
        <time>2020-11-08T10:26:19</time>
      </trkpt>
      <trkpt lat="47.584508965" lon="12.313180296">
        <ele>1688.2</ele>
        <time>2020-11-08T10:27:13</time>
      </trkpt>
      <trkpt lat="47.584493458" lon="12.313376181">
        <ele>1684.4</ele>
        <time>2020-11-08T10:27:35</time>
      </trkpt>
      <trkpt lat="47.584592700" lon="12.313554296">
        <ele>1680.0</ele>
        <time>2020-11-08T10:27:58</time>
      </trkpt>
      <trkpt lat="47.584604938" lon="12.313710367">
        <ele>1677.6</ele>
        <time>2020-11-08T10:28:08</time>
      </trkpt>
      <trkpt lat="47.584686326" lon="12.313903402">
        <ele>1676.7</ele>
        <time>2020-11-08T10:28:23</time>
      </trkpt>
      <trkpt lat="47.584884558" lon="12.314127283">
        <ele>1678.1</ele>
        <time>2020-11-08T10:28:51</time>
      </trkpt>
      <trkpt lat="47.585071390" lon="12.314272123">
        <ele>1677.2</ele>
        <time>2020-11-08T10:29:15</time>
      </trkpt>
      <trkpt lat="47.585134506" lon="12.314363569">
        <ele>1676.2</ele>
        <time>2020-11-08T10:29:29</time>
      </trkpt>
      <trkpt lat="47.585173063" lon="12.314334651">
        <ele>1675.2</ele>
        <time>2020-11-08T10:29:36</time>
      </trkpt>
      <trkpt lat="47.585407337" lon="12.314294083">
        <ele>1671.4</ele>
        <time>2020-11-08T10:30:00</time>
      </trkpt>
      <trkpt lat="47.585483361" lon="12.314252090">
        <ele>1670.9</ele>
        <time>2020-11-08T10:30:09</time>
      </trkpt>
      <trkpt lat="47.585568856" lon="12.314258460">
        <ele>1669.0</ele>
        <time>2020-11-08T10:30:19</time>
      </trkpt>
      <trkpt lat="47.585683018" lon="12.314151758">
        <ele>1667.1</ele>
        <time>2020-11-08T10:30:33</time>
      </trkpt>
      <trkpt lat="47.585834898" lon="12.314080596">
        <ele>1664.7</ele>
        <time>2020-11-08T10:30:47</time>
      </trkpt>
      <trkpt lat="47.586007062" lon="12.314071292">
        <ele>1661.8</ele>
        <time>2020-11-08T10:31:04</time>
      </trkpt>
      <trkpt lat="47.586104628" lon="12.314099120">
        <ele>1658.9</ele>
        <time>2020-11-08T10:31:18</time>
      </trkpt>
      <trkpt lat="47.586139748" lon="12.314213784">
        <ele>1655.5</ele>
        <time>2020-11-08T10:31:31</time>
      </trkpt>
      <trkpt lat="47.586231027" lon="12.314312020">
        <ele>1652.2</ele>
        <time>2020-11-08T10:31:46</time>
      </trkpt>
      <trkpt lat="47.586378548" lon="12.314370023">
        <ele>1648.8</ele>
        <time>2020-11-08T10:32:01</time>
      </trkpt>
      <trkpt lat="47.586471420" lon="12.314353092">
        <ele>1648.3</ele>
        <time>2020-11-08T10:32:10</time>
      </trkpt>
      <trkpt lat="47.586531853" lon="12.314457027">
        <ele>1646.9</ele>
        <time>2020-11-08T10:32:27</time>
      </trkpt>
      <trkpt lat="47.586550629" lon="12.314527268">
        <ele>1646.9</ele>
        <time>2020-11-08T10:32:53</time>
      </trkpt>
      <trkpt lat="47.586627742" lon="12.314587869">
        <ele>1645.9</ele>
        <time>2020-11-08T10:33:01</time>
      </trkpt>
      <trkpt lat="47.586791273" lon="12.314663222">
        <ele>1645.4</ele>
        <time>2020-11-08T10:33:20</time>
      </trkpt>
      <trkpt lat="47.587011801" lon="12.314847624">
        <ele>1650.7</ele>
        <time>2020-11-08T10:33:52</time>
      </trkpt>
      <trkpt lat="47.587110875" lon="12.314970503">
        <ele>1653.6</ele>
        <time>2020-11-08T10:34:11</time>
      </trkpt>
      <trkpt lat="47.587179607" lon="12.315012831">
        <ele>1656.5</ele>
        <time>2020-11-08T10:34:26</time>
      </trkpt>
      <trkpt lat="47.587245321" lon="12.315025069">
        <ele>1659.8</ele>
        <time>2020-11-08T10:34:41</time>
      </trkpt>
      <trkpt lat="47.587405080" lon="12.315358417">
        <ele>1665.1</ele>
        <time>2020-11-08T10:35:18</time>
      </trkpt>
      <trkpt lat="47.587468866" lon="12.315438800">
        <ele>1667.5</ele>
        <time>2020-11-08T10:35:31</time>
      </trkpt>
      <trkpt lat="47.587522007" lon="12.315553380">
        <ele>1670.4</ele>
        <time>2020-11-08T10:35:47</time>
      </trkpt>
      <trkpt lat="47.587578418" lon="12.315572742">
        <ele>1672.8</ele>
        <time>2020-11-08T10:36:01</time>
      </trkpt>
      <trkpt lat="47.587943701" lon="12.315963758">
        <ele>1682.9</ele>
        <time>2020-11-08T10:37:08</time>
      </trkpt>
      <trkpt lat="47.587987119" lon="12.316052690">
        <ele>1687.7</ele>
        <time>2020-11-08T10:37:31</time>
      </trkpt>
      <trkpt lat="47.588004051" lon="12.316192752">
        <ele>1689.7</ele>
        <time>2020-11-08T10:37:46</time>
      </trkpt>
      <trkpt lat="47.588051576" lon="12.316298280">
        <ele>1692.1</ele>
        <time>2020-11-08T10:38:02</time>
      </trkpt>
      <trkpt lat="47.588147717" lon="12.316345721">
        <ele>1693.0</ele>
        <time>2020-11-08T10:38:23</time>
      </trkpt>
      <trkpt lat="47.588348715" lon="12.316309931">
        <ele>1693.0</ele>
        <time>2020-11-08T10:38:49</time>
      </trkpt>
      <trkpt lat="47.588465391" lon="12.316364748">
        <ele>1694.5</ele>
        <time>2020-11-08T10:39:05</time>
      </trkpt>
      <trkpt lat="47.588545689" lon="12.316435156">
        <ele>1697.3</ele>
        <time>2020-11-08T10:39:20</time>
      </trkpt>
      <trkpt lat="47.588597657" lon="12.316527441">
        <ele>1700.2</ele>
        <time>2020-11-08T10:39:35</time>
      </trkpt>
      <trkpt lat="47.588657504" lon="12.316582762">
        <ele>1703.1</ele>
        <time>2020-11-08T10:39:50</time>
      </trkpt>
      <trkpt lat="47.588689774" lon="12.316649985">
        <ele>1706.0</ele>
        <time>2020-11-08T10:40:04</time>
      </trkpt>
      <trkpt lat="47.588698072" lon="12.316732630">
        <ele>1708.9</ele>
        <time>2020-11-08T10:40:19</time>
      </trkpt>
      <trkpt lat="47.588687260" lon="12.316932036">
        <ele>1714.7</ele>
        <time>2020-11-08T10:40:50</time>
      </trkpt>
      <trkpt lat="47.588825477" lon="12.316829022">
        <ele>1720.9</ele>
        <time>2020-11-08T10:41:33</time>
      </trkpt>
      <trkpt lat="47.588937879" lon="12.316882415">
        <ele>1723.8</ele>
        <time>2020-11-08T10:42:02</time>
      </trkpt>
      <trkpt lat="47.588974088" lon="12.316871937">
        <ele>1723.3</ele>
        <time>2020-11-08T10:42:13</time>
      </trkpt>
      <trkpt lat="47.589053214" lon="12.316952906">
        <ele>1721.4</ele>
        <time>2020-11-08T10:42:32</time>
      </trkpt>
      <trkpt lat="47.589132255" lon="12.316933125">
        <ele>1718.0</ele>
        <time>2020-11-08T10:42:47</time>
      </trkpt>
      <trkpt lat="47.589333840" lon="12.317138901">
        <ele>1713.2</ele>
        <time>2020-11-08T10:43:24</time>
      </trkpt>
      <trkpt lat="47.589362673" lon="12.317144601">
        <ele>1711.8</ele>
        <time>2020-11-08T10:43:31</time>
      </trkpt>
      <trkpt lat="47.589433081" lon="12.317380803">
        <ele>1708.4</ele>
        <time>2020-11-08T10:43:53</time>
      </trkpt>
      <trkpt lat="47.589469375" lon="12.317424724">
        <ele>1707.4</ele>
        <time>2020-11-08T10:43:58</time>
      </trkpt>
      <trkpt lat="47.589517990" lon="12.317538550">
        <ele>1707.0</ele>
        <time>2020-11-08T10:44:12</time>
      </trkpt>
      <trkpt lat="47.589528551" lon="12.317612981">
        <ele>1707.0</ele>
        <time>2020-11-08T10:44:20</time>
      </trkpt>
      <trkpt lat="47.589605916" lon="12.317754384">
        <ele>1705.0</ele>
        <time>2020-11-08T10:44:36</time>
      </trkpt>
      <trkpt lat="47.589681689" lon="12.318068873">
        <ele>1703.1</ele>
        <time>2020-11-08T10:45:08</time>
      </trkpt>
      <trkpt lat="47.589851422" lon="12.318373555">
        <ele>1702.6</ele>
        <time>2020-11-08T10:45:37</time>
      </trkpt>
      <trkpt lat="47.589873634" lon="12.318648901">
        <ele>1707.9</ele>
        <time>2020-11-08T10:46:09</time>
      </trkpt>
      <trkpt lat="47.590003386" lon="12.319014939">
        <ele>1713.2</ele>
        <time>2020-11-08T10:46:58</time>
      </trkpt>
      <trkpt lat="47.590063065" lon="12.319106888">
        <ele>1716.1</ele>
        <time>2020-11-08T10:47:14</time>
      </trkpt>
      <trkpt lat="47.590165073" lon="12.319183918">
        <ele>1718.0</ele>
        <time>2020-11-08T10:47:30</time>
      </trkpt>
      <trkpt lat="47.590189464" lon="12.319283579">
        <ele>1722.3</ele>
        <time>2020-11-08T10:47:59</time>
      </trkpt>
      <trkpt lat="47.590306727" lon="12.319396902">
        <ele>1726.2</ele>
        <time>2020-11-08T10:48:29</time>
      </trkpt>
      <trkpt lat="47.590400856" lon="12.319538724">
        <ele>1731.5</ele>
        <time>2020-11-08T10:48:59</time>
      </trkpt>
      <trkpt lat="47.590433797" lon="12.319620028">
        <ele>1733.4</ele>
        <time>2020-11-08T10:49:14</time>
      </trkpt>
      <trkpt lat="47.590488195" lon="12.319679372">
        <ele>1735.8</ele>
        <time>2020-11-08T10:49:30</time>
      </trkpt>
      <trkpt lat="47.590498757" lon="12.319721281">
        <ele>1738.2</ele>
        <time>2020-11-08T10:49:44</time>
      </trkpt>
      <trkpt lat="47.590541756" lon="12.319733519">
        <ele>1738.7</ele>
        <time>2020-11-08T10:49:58</time>
      </trkpt>
      <trkpt lat="47.590580229" lon="12.319801496">
        <ele>1742.5</ele>
        <time>2020-11-08T10:50:39</time>
      </trkpt>
      <trkpt lat="47.590638315" lon="12.319818763">
        <ele>1742.0</ele>
        <time>2020-11-08T10:51:26</time>
      </trkpt>
      <trkpt lat="47.590728421" lon="12.319936194">
        <ele>1746.8</ele>
        <time>2020-11-08T10:51:54</time>
      </trkpt>
      <trkpt lat="47.590706963" lon="12.320042476">
        <ele>1750.2</ele>
        <time>2020-11-08T10:52:10</time>
      </trkpt>
      <trkpt lat="47.590707634" lon="12.320137108">
        <ele>1752.6</ele>
        <time>2020-11-08T10:52:27</time>
      </trkpt>
      <trkpt lat="47.590737976" lon="12.320193853">
        <ele>1755.0</ele>
        <time>2020-11-08T10:52:40</time>
      </trkpt>
      <trkpt lat="47.590894718" lon="12.320292005">
        <ele>1761.3</ele>
        <time>2020-11-08T10:53:27</time>
      </trkpt>
      <trkpt lat="47.590952385" lon="12.320426200">
        <ele>1768.5</ele>
        <time>2020-11-08T10:54:06</time>
      </trkpt>
      <trkpt lat="47.590946434" lon="12.320494764">
        <ele>1770.9</ele>
        <time>2020-11-08T10:54:20</time>
      </trkpt>
      <trkpt lat="47.591120023" lon="12.320600543">
        <ele>1777.1</ele>
        <time>2020-11-08T10:55:08</time>
      </trkpt>
      <trkpt lat="47.591172913" lon="12.320661899">
        <ele>1779.1</ele>
        <time>2020-11-08T10:55:27</time>
      </trkpt>
      <trkpt lat="47.591160173" lon="12.320721326">
        <ele>1781.9</ele>
        <time>2020-11-08T10:55:41</time>
      </trkpt>
      <trkpt lat="47.591120442" lon="12.320765750">
        <ele>1783.9</ele>
        <time>2020-11-08T10:55:55</time>
      </trkpt>
      <trkpt lat="47.591086747" lon="12.320908830">
        <ele>1788.2</ele>
        <time>2020-11-08T10:56:23</time>
      </trkpt>
      <trkpt lat="47.591091441" lon="12.321005641">
        <ele>1790.6</ele>
        <time>2020-11-08T10:56:39</time>
      </trkpt>
      <trkpt lat="47.591119437" lon="12.321049981">
        <ele>1792.0</ele>
        <time>2020-11-08T10:56:52</time>
      </trkpt>
      <trkpt lat="47.591303922" lon="12.321146624">
        <ele>1796.4</ele>
        <time>2020-11-08T10:58:05</time>
      </trkpt>
      <trkpt lat="47.591382880" lon="12.321215775">
        <ele>1797.8</ele>
        <time>2020-11-08T10:58:20</time>
      </trkpt>
      <trkpt lat="47.591477930" lon="12.321419874">
        <ele>1801.2</ele>
        <time>2020-11-08T10:58:51</time>
      </trkpt>
      <trkpt lat="47.591476087" lon="12.321477039">
        <ele>1803.6</ele>
        <time>2020-11-08T10:59:07</time>
      </trkpt>
      <trkpt lat="47.591449851" lon="12.321504867">
        <ele>1806.0</ele>
        <time>2020-11-08T10:59:40</time>
      </trkpt>
      <trkpt lat="47.591451695" lon="12.321564378">
        <ele>1804.0</ele>
        <time>2020-11-08T11:01:46</time>
      </trkpt>
      <trkpt lat="47.591513051" lon="12.321684072">
        <ele>1806.0</ele>
        <time>2020-11-08T11:02:03</time>
      </trkpt>
      <trkpt lat="47.591551775" lon="12.321804771">
        <ele>1809.3</ele>
        <time>2020-11-08T11:02:19</time>
      </trkpt>
      <trkpt lat="47.591697285" lon="12.321919687">
        <ele>1808.9</ele>
        <time>2020-11-08T11:02:51</time>
      </trkpt>
      <trkpt lat="47.591737350" lon="12.321983138">
        <ele>1808.9</ele>
        <time>2020-11-08T11:03:03</time>
      </trkpt>
      <trkpt lat="47.591947652" lon="12.322332244">
        <ele>1806.9</ele>
        <time>2020-11-08T11:03:50</time>
      </trkpt>
      <trkpt lat="47.591998447" lon="12.322490243">
        <ele>1807.4</ele>
        <time>2020-11-08T11:04:07</time>
      </trkpt>
      <trkpt lat="47.592077153" lon="12.322644638">
        <ele>1807.4</ele>
        <time>2020-11-08T11:04:37</time>
      </trkpt>
      <trkpt lat="47.592173712" lon="12.323045796">
        <ele>1811.3</ele>
        <time>2020-11-08T11:05:26</time>
      </trkpt>
      <trkpt lat="47.592174383" lon="12.323186863">
        <ele>1812.7</ele>
        <time>2020-11-08T11:05:41</time>
      </trkpt>
      <trkpt lat="47.592217801" lon="12.323483331">
        <ele>1816.5</ele>
        <time>2020-11-08T11:06:10</time>
      </trkpt>
      <trkpt lat="47.592219226" lon="12.323727161">
        <ele>1820.4</ele>
        <time>2020-11-08T11:06:37</time>
      </trkpt>
      <trkpt lat="47.592283851" lon="12.324080206">
        <ele>1824.2</ele>
        <time>2020-11-08T11:07:12</time>
      </trkpt>
      <trkpt lat="47.592306901" lon="12.324162265">
        <ele>1825.2</ele>
        <time>2020-11-08T11:07:29</time>
      </trkpt>
      <trkpt lat="47.592325844" lon="12.324166372">
        <ele>1825.2</ele>
        <time>2020-11-08T11:07:46</time>
      </trkpt>
      <trkpt lat="47.592319055" lon="12.324208785">
        <ele>1821.8</ele>
        <time>2020-11-08T11:08:39</time>
      </trkpt>
      <trkpt lat="47.592314025" lon="12.324174754">
        <ele>1830.5</ele>
        <time>2020-11-08T11:14:32</time>
      </trkpt>
      <trkpt lat="47.592340512" lon="12.324211216">
        <ele>1827.6</ele>
        <time>2020-11-08T11:14:42</time>
      </trkpt>
      <trkpt lat="47.592433048" lon="12.324388661">
        <ele>1823.3</ele>
        <time>2020-11-08T11:15:07</time>
      </trkpt>
      <trkpt lat="47.592448471" lon="12.324437443">
        <ele>1821.8</ele>
        <time>2020-11-08T11:15:20</time>
      </trkpt>
      <trkpt lat="47.592423158" lon="12.324412046">
        <ele>1819.4</ele>
        <time>2020-11-08T11:27:05</time>
      </trkpt>
      <trkpt lat="47.592437491" lon="12.324428726">
        <ele>1819.4</ele>
        <time>2020-11-08T11:37:40</time>
      </trkpt>
      <trkpt lat="47.592449142" lon="12.324396707">
        <ele>1819.4</ele>
        <time>2020-11-08T12:04:00</time>
      </trkpt>
      <trkpt lat="47.592462720" lon="12.324405424">
        <ele>1819.4</ele>
        <time>2020-11-08T12:04:12</time>
      </trkpt>
      <trkpt lat="47.592503708" lon="12.324580438">
        <ele>1822.8</ele>
        <time>2020-11-08T12:12:39</time>
      </trkpt>
      <trkpt lat="47.592546288" lon="12.324994253">
        <ele>1818.0</ele>
        <time>2020-11-08T12:13:22</time>
      </trkpt>
      <trkpt lat="47.592667909" lon="12.325404044">
        <ele>1814.2</ele>
        <time>2020-11-08T12:14:01</time>
      </trkpt>
      <trkpt lat="47.592666233" lon="12.325493144">
        <ele>1813.2</ele>
        <time>2020-11-08T12:14:20</time>
      </trkpt>
      <trkpt lat="47.592695318" lon="12.325614681">
        <ele>1810.8</ele>
        <time>2020-11-08T12:14:34</time>
      </trkpt>
      <trkpt lat="47.592694480" lon="12.325745523">
        <ele>1808.4</ele>
        <time>2020-11-08T12:14:48</time>
      </trkpt>
      <trkpt lat="47.592673358" lon="12.325778883">
        <ele>1806.9</ele>
        <time>2020-11-08T12:14:56</time>
      </trkpt>
      <trkpt lat="47.592744939" lon="12.326038973">
        <ele>1800.7</ele>
        <time>2020-11-08T12:15:30</time>
      </trkpt>
      <trkpt lat="47.592733540" lon="12.326293532">
        <ele>1796.4</ele>
        <time>2020-11-08T12:15:56</time>
      </trkpt>
      <trkpt lat="47.592678135" lon="12.326558065">
        <ele>1794.4</ele>
        <time>2020-11-08T12:16:15</time>
      </trkpt>
      <trkpt lat="47.592711328" lon="12.327005994">
        <ele>1783.4</ele>
        <time>2020-11-08T12:17:06</time>
      </trkpt>
      <trkpt lat="47.592699844" lon="12.327053351">
        <ele>1781.0</ele>
        <time>2020-11-08T12:17:20</time>
      </trkpt>
      <trkpt lat="47.592738820" lon="12.327279244">
        <ele>1776.2</ele>
        <time>2020-11-08T12:17:40</time>
      </trkpt>
      <trkpt lat="47.592731444" lon="12.327352502">
        <ele>1773.8</ele>
        <time>2020-11-08T12:17:52</time>
      </trkpt>
      <trkpt lat="47.592782574" lon="12.327528941">
        <ele>1769.9</ele>
        <time>2020-11-08T12:18:15</time>
      </trkpt>
      <trkpt lat="47.592771510" lon="12.327570515">
        <ele>1769.0</ele>
        <time>2020-11-08T12:18:21</time>
      </trkpt>
      <trkpt lat="47.592830602" lon="12.327763299">
        <ele>1766.6</ele>
        <time>2020-11-08T12:18:40</time>
      </trkpt>
      <trkpt lat="47.592803277" lon="12.327810321">
        <ele>1764.6</ele>
        <time>2020-11-08T12:18:52</time>
      </trkpt>
      <trkpt lat="47.592803026" lon="12.327911574">
        <ele>1762.7</ele>
        <time>2020-11-08T12:19:02</time>
      </trkpt>
      <trkpt lat="47.592820041" lon="12.328252215">
        <ele>1758.4</ele>
        <time>2020-11-08T12:19:41</time>
      </trkpt>
      <trkpt lat="47.592869746" lon="12.328492105">
        <ele>1759.8</ele>
        <time>2020-11-08T12:20:10</time>
      </trkpt>
      <trkpt lat="47.592874020" lon="12.328659324">
        <ele>1760.8</ele>
        <time>2020-11-08T12:20:26</time>
      </trkpt>
      <trkpt lat="47.592890700" lon="12.328715734">
        <ele>1761.3</ele>
        <time>2020-11-08T12:20:40</time>
      </trkpt>
      <trkpt lat="47.592876870" lon="12.328816485">
        <ele>1760.3</ele>
        <time>2020-11-08T12:21:12</time>
      </trkpt>
      <trkpt lat="47.592895310" lon="12.329227282">
        <ele>1755.0</ele>
        <time>2020-11-08T12:21:53</time>
      </trkpt>
      <trkpt lat="47.592963791" lon="12.329323925">
        <ele>1751.7</ele>
        <time>2020-11-08T12:22:44</time>
      </trkpt>
      <trkpt lat="47.593011148" lon="12.329456946">
        <ele>1748.3</ele>
        <time>2020-11-08T12:23:14</time>
      </trkpt>
      <trkpt lat="47.593052471" lon="12.329516122">
        <ele>1746.4</ele>
        <time>2020-11-08T12:23:21</time>
      </trkpt>
      <trkpt lat="47.593120532" lon="12.329719132">
        <ele>1744.0</ele>
        <time>2020-11-08T12:23:40</time>
      </trkpt>
      <trkpt lat="47.593135033" lon="12.329879813">
        <ele>1743.0</ele>
        <time>2020-11-08T12:23:56</time>
      </trkpt>
      <trkpt lat="47.593108378" lon="12.330269739">
        <ele>1738.2</ele>
        <time>2020-11-08T12:24:28</time>
      </trkpt>
      <trkpt lat="47.593027996" lon="12.330587329">
        <ele>1734.8</ele>
        <time>2020-11-08T12:24:58</time>
      </trkpt>
      <trkpt lat="47.592979465" lon="12.330936603">
        <ele>1730.0</ele>
        <time>2020-11-08T12:25:28</time>
      </trkpt>
      <trkpt lat="47.593006203" lon="12.331047077">
        <ele>1726.2</ele>
        <time>2020-11-08T12:25:51</time>
      </trkpt>
      <trkpt lat="47.593025230" lon="12.331380174">
        <ele>1718.0</ele>
        <time>2020-11-08T12:26:34</time>
      </trkpt>
      <trkpt lat="47.592912326" lon="12.331683598">
        <ele>1712.7</ele>
        <time>2020-11-08T12:27:10</time>
      </trkpt>
      <trkpt lat="47.592933532" lon="12.331866408">
        <ele>1705.0</ele>
        <time>2020-11-08T12:27:55</time>
      </trkpt>
      <trkpt lat="47.592895981" lon="12.331891973">
        <ele>1702.6</ele>
        <time>2020-11-08T12:28:12</time>
      </trkpt>
      <trkpt lat="47.592881145" lon="12.332155919">
        <ele>1694.0</ele>
        <time>2020-11-08T12:28:57</time>
      </trkpt>
      <trkpt lat="47.592838062" lon="12.332162876">
        <ele>1691.6</ele>
        <time>2020-11-08T12:29:10</time>
      </trkpt>
      <trkpt lat="47.592812749" lon="12.332221549">
        <ele>1689.7</ele>
        <time>2020-11-08T12:29:22</time>
      </trkpt>
      <trkpt lat="47.592821717" lon="12.332474012">
        <ele>1683.9</ele>
        <time>2020-11-08T12:29:52</time>
      </trkpt>
      <trkpt lat="47.592803193" lon="12.332549030">
        <ele>1681.5</ele>
        <time>2020-11-08T12:30:03</time>
      </trkpt>
      <trkpt lat="47.592819538" lon="12.332629412">
        <ele>1678.6</ele>
        <time>2020-11-08T12:30:17</time>
      </trkpt>
      <trkpt lat="47.592881396" lon="12.332730079">
        <ele>1674.3</ele>
        <time>2020-11-08T12:30:40</time>
      </trkpt>
      <trkpt lat="47.592840409" lon="12.332829237">
        <ele>1671.4</ele>
        <time>2020-11-08T12:30:55</time>
      </trkpt>
      <trkpt lat="47.592884833" lon="12.332999306">
        <ele>1665.6</ele>
        <time>2020-11-08T12:31:23</time>
      </trkpt>
      <trkpt lat="47.592889611" lon="12.333113803">
        <ele>1663.2</ele>
        <time>2020-11-08T12:31:36</time>
      </trkpt>
      <trkpt lat="47.592928587" lon="12.333288062">
        <ele>1659.4</ele>
        <time>2020-11-08T12:31:49</time>
      </trkpt>
      <trkpt lat="47.592918612" lon="12.333529880">
        <ele>1654.6</ele>
        <time>2020-11-08T12:32:14</time>
      </trkpt>
      <trkpt lat="47.592881564" lon="12.333670864">
        <ele>1650.7</ele>
        <time>2020-11-08T12:32:28</time>
      </trkpt>
      <trkpt lat="47.592898328" lon="12.333836071">
        <ele>1648.3</ele>
        <time>2020-11-08T12:32:40</time>
      </trkpt>
      <trkpt lat="47.592876702" lon="12.333956519">
        <ele>1646.4</ele>
        <time>2020-11-08T12:32:49</time>
      </trkpt>
      <trkpt lat="47.592918361" lon="12.334132036">
        <ele>1643.5</ele>
        <time>2020-11-08T12:33:04</time>
      </trkpt>
      <trkpt lat="47.592963958" lon="12.334632855">
        <ele>1637.3</ele>
        <time>2020-11-08T12:33:43</time>
      </trkpt>
      <trkpt lat="47.593002263" lon="12.334795212">
        <ele>1634.4</ele>
        <time>2020-11-08T12:33:59</time>
      </trkpt>
      <trkpt lat="47.593018105" lon="12.334812982">
        <ele>1633.4</ele>
        <time>2020-11-08T12:34:04</time>
      </trkpt>
      <trkpt lat="47.592975525" lon="12.334999898">
        <ele>1630.5</ele>
        <time>2020-11-08T12:34:18</time>
      </trkpt>
      <trkpt lat="47.593067810" lon="12.335103415">
        <ele>1628.6</ele>
        <time>2020-11-08T12:34:30</time>
      </trkpt>
      <trkpt lat="47.593069822" lon="12.335221851">
        <ele>1628.6</ele>
        <time>2020-11-08T12:34:38</time>
      </trkpt>
      <trkpt lat="47.593124555" lon="12.335383119">
        <ele>1628.6</ele>
        <time>2020-11-08T12:34:51</time>
      </trkpt>
      <trkpt lat="47.593076276" lon="12.335695680">
        <ele>1627.7</ele>
        <time>2020-11-08T12:35:20</time>
      </trkpt>
      <trkpt lat="47.593112737" lon="12.335767932">
        <ele>1626.2</ele>
        <time>2020-11-08T12:35:29</time>
      </trkpt>
      <trkpt lat="47.593188342" lon="12.336044787">
        <ele>1620.4</ele>
        <time>2020-11-08T12:36:02</time>
      </trkpt>
      <trkpt lat="47.593194209" lon="12.336144196">
        <ele>1620.9</ele>
        <time>2020-11-08T12:36:16</time>
      </trkpt>
      <trkpt lat="47.593238382" lon="12.336231451">
        <ele>1621.4</ele>
        <time>2020-11-08T12:36:29</time>
      </trkpt>
      <trkpt lat="47.593240896" lon="12.336321306">
        <ele>1621.4</ele>
        <time>2020-11-08T12:36:41</time>
      </trkpt>
      <trkpt lat="47.593294289" lon="12.336522890">
        <ele>1617.1</ele>
        <time>2020-11-08T12:37:08</time>
      </trkpt>
      <trkpt lat="47.593392273" lon="12.336559435">
        <ele>1614.2</ele>
        <time>2020-11-08T12:37:22</time>
      </trkpt>
      <trkpt lat="47.593452707" lon="12.336679967">
        <ele>1613.2</ele>
        <time>2020-11-08T12:37:37</time>
      </trkpt>
      <trkpt lat="47.593507106" lon="12.336733863">
        <ele>1615.2</ele>
        <time>2020-11-08T12:41:53</time>
      </trkpt>
      <trkpt lat="47.593514817" lon="12.337026978">
        <ele>1619.5</ele>
        <time>2020-11-08T12:42:23</time>
      </trkpt>
      <trkpt lat="47.593562426" lon="12.337388908">
        <ele>1623.8</ele>
        <time>2020-11-08T12:42:57</time>
      </trkpt>
      <trkpt lat="47.593496209" lon="12.337461999">
        <ele>1625.2</ele>
        <time>2020-11-08T12:43:09</time>
      </trkpt>
      <trkpt lat="47.593558319" lon="12.337543890">
        <ele>1627.2</ele>
        <time>2020-11-08T12:43:23</time>
      </trkpt>
      <trkpt lat="47.593585728" lon="12.337699290">
        <ele>1628.1</ele>
        <time>2020-11-08T12:43:41</time>
      </trkpt>
      <trkpt lat="47.593551613" lon="12.337902887">
        <ele>1628.1</ele>
        <time>2020-11-08T12:43:57</time>
      </trkpt>
      <trkpt lat="47.593493862" lon="12.338045463">
        <ele>1629.6</ele>
        <time>2020-11-08T12:44:35</time>
      </trkpt>
      <trkpt lat="47.593511967" lon="12.338260291">
        <ele>1626.2</ele>
        <time>2020-11-08T12:45:01</time>
      </trkpt>
      <trkpt lat="47.593571479" lon="12.338449974">
        <ele>1622.4</ele>
        <time>2020-11-08T12:45:24</time>
      </trkpt>
      <trkpt lat="47.593535939" lon="12.338653151">
        <ele>1621.4</ele>
        <time>2020-11-08T12:45:46</time>
      </trkpt>
      <trkpt lat="47.593524875" lon="12.338959174">
        <ele>1619.0</ele>
        <time>2020-11-08T12:46:16</time>
      </trkpt>
      <trkpt lat="47.593536526" lon="12.339019692">
        <ele>1620.4</ele>
        <time>2020-11-08T12:46:23</time>
      </trkpt>
      <trkpt lat="47.593593691" lon="12.339045592">
        <ele>1620.4</ele>
        <time>2020-11-08T12:46:30</time>
      </trkpt>
      <trkpt lat="47.593621938" lon="12.339297468">
        <ele>1620.9</ele>
        <time>2020-11-08T12:46:50</time>
      </trkpt>
      <trkpt lat="47.593563683" lon="12.339455299">
        <ele>1620.9</ele>
        <time>2020-11-08T12:47:06</time>
      </trkpt>
      <trkpt lat="47.593567623" lon="12.339585554">
        <ele>1619.5</ele>
        <time>2020-11-08T12:47:21</time>
      </trkpt>
      <trkpt lat="47.593599390" lon="12.339647412">
        <ele>1617.6</ele>
        <time>2020-11-08T12:47:34</time>
      </trkpt>
      <trkpt lat="47.593592601" lon="12.339694351">
        <ele>1615.2</ele>
        <time>2020-11-08T12:47:45</time>
      </trkpt>
      <trkpt lat="47.593642892" lon="12.339784624">
        <ele>1610.3</ele>
        <time>2020-11-08T12:48:16</time>
      </trkpt>
      <trkpt lat="47.593648005" lon="12.339867521">
        <ele>1606.0</ele>
        <time>2020-11-08T12:48:39</time>
      </trkpt>
      <trkpt lat="47.593631744" lon="12.339875819">
        <ele>1606.0</ele>
        <time>2020-11-08T12:48:41</time>
      </trkpt>
      <trkpt lat="47.593642557" lon="12.340009678">
        <ele>1604.1</ele>
        <time>2020-11-08T12:48:53</time>
      </trkpt>
      <trkpt lat="47.593680862" lon="12.340134736">
        <ele>1606.0</ele>
        <time>2020-11-08T12:49:11</time>
      </trkpt>
      <trkpt lat="47.593733333" lon="12.340177400">
        <ele>1605.1</ele>
        <time>2020-11-08T12:49:28</time>
      </trkpt>
      <trkpt lat="47.593761748" lon="12.340322323">
        <ele>1604.6</ele>
        <time>2020-11-08T12:49:43</time>
      </trkpt>
      <trkpt lat="47.593748756" lon="12.340649637">
        <ele>1600.7</ele>
        <time>2020-11-08T12:50:14</time>
      </trkpt>
      <trkpt lat="47.593761329" lon="12.340899585">
        <ele>1600.2</ele>
        <time>2020-11-08T12:50:43</time>
      </trkpt>
      <trkpt lat="47.593706595" lon="12.340971585">
        <ele>1598.8</ele>
        <time>2020-11-08T12:50:55</time>
      </trkpt>
      <trkpt lat="47.593768286" lon="12.341074515">
        <ele>1597.4</ele>
        <time>2020-11-08T12:51:10</time>
      </trkpt>
      <trkpt lat="47.593769878" lon="12.341165878">
        <ele>1596.4</ele>
        <time>2020-11-08T12:51:19</time>
      </trkpt>
      <trkpt lat="47.593865432" lon="12.341417167">
        <ele>1591.6</ele>
        <time>2020-11-08T12:51:59</time>
      </trkpt>
      <trkpt lat="47.593812374" lon="12.341773063">
        <ele>1586.8</ele>
        <time>2020-11-08T12:52:38</time>
      </trkpt>
      <trkpt lat="47.593838777" lon="12.342008343">
        <ele>1586.3</ele>
        <time>2020-11-08T12:53:30</time>
      </trkpt>
      <trkpt lat="47.593824528" lon="12.342167851">
        <ele>1586.3</ele>
        <time>2020-11-08T12:53:48</time>
      </trkpt>
      <trkpt lat="47.593760658" lon="12.342400029">
        <ele>1588.2</ele>
        <time>2020-11-08T12:54:17</time>
      </trkpt>
      <trkpt lat="47.593749342" lon="12.342522489">
        <ele>1587.8</ele>
        <time>2020-11-08T12:54:34</time>
      </trkpt>
      <trkpt lat="47.593818242" lon="12.342747543">
        <ele>1586.8</ele>
        <time>2020-11-08T12:54:54</time>
      </trkpt>
      <trkpt lat="47.593810698" lon="12.342976537">
        <ele>1586.3</ele>
        <time>2020-11-08T12:55:11</time>
      </trkpt>
      <trkpt lat="47.593836011" lon="12.343068067">
        <ele>1585.3</ele>
        <time>2020-11-08T12:55:21</time>
      </trkpt>
      <trkpt lat="47.593829474" lon="12.343288427">
        <ele>1582.0</ele>
        <time>2020-11-08T12:55:43</time>
      </trkpt>
      <trkpt lat="47.593774823" lon="12.343420358">
        <ele>1579.6</ele>
        <time>2020-11-08T12:55:55</time>
      </trkpt>
      <trkpt lat="47.593662087" lon="12.343827300">
        <ele>1584.9</ele>
        <time>2020-11-08T12:56:40</time>
      </trkpt>
      <trkpt lat="47.593619004" lon="12.344030729">
        <ele>1584.4</ele>
        <time>2020-11-08T12:58:36</time>
      </trkpt>
      <trkpt lat="47.593622608" lon="12.344079679">
        <ele>1584.4</ele>
        <time>2020-11-08T12:58:46</time>
      </trkpt>
      <trkpt lat="47.593562510" lon="12.344175233">
        <ele>1580.5</ele>
        <time>2020-11-08T12:59:02</time>
      </trkpt>
      <trkpt lat="47.593547422" lon="12.344233906">
        <ele>1577.2</ele>
        <time>2020-11-08T12:59:10</time>
      </trkpt>
      <trkpt lat="47.593541555" lon="12.344309427">
        <ele>1575.3</ele>
        <time>2020-11-08T12:59:22</time>
      </trkpt>
      <trkpt lat="47.593599306" lon="12.344438676">
        <ele>1570.0</ele>
        <time>2020-11-08T12:59:48</time>
      </trkpt>
      <trkpt lat="47.593516409" lon="12.344604637">
        <ele>1565.6</ele>
        <time>2020-11-08T13:00:11</time>
      </trkpt>
      <trkpt lat="47.593407193" lon="12.344656773">
        <ele>1562.8</ele>
        <time>2020-11-08T13:00:27</time>
      </trkpt>
      <trkpt lat="47.593397889" lon="12.344749141">
        <ele>1558.4</ele>
        <time>2020-11-08T13:00:54</time>
      </trkpt>
      <trkpt lat="47.593426807" lon="12.344931029">
        <ele>1551.2</ele>
        <time>2020-11-08T13:01:34</time>
      </trkpt>
      <trkpt lat="47.593531497" lon="12.344981488">
        <ele>1546.9</ele>
        <time>2020-11-08T13:01:54</time>
      </trkpt>
      <trkpt lat="47.593585728" lon="12.345074443">
        <ele>1543.5</ele>
        <time>2020-11-08T13:02:06</time>
      </trkpt>
      <trkpt lat="47.593543315" lon="12.345154490">
        <ele>1541.6</ele>
        <time>2020-11-08T13:02:13</time>
      </trkpt>
      <trkpt lat="47.593559157" lon="12.345222132">
        <ele>1539.2</ele>
        <time>2020-11-08T13:02:23</time>
      </trkpt>
      <trkpt lat="47.593678012" lon="12.345440649">
        <ele>1535.4</ele>
        <time>2020-11-08T13:02:44</time>
      </trkpt>
      <trkpt lat="47.593700895" lon="12.345657488">
        <ele>1531.0</ele>
        <time>2020-11-08T13:03:10</time>
      </trkpt>
      <trkpt lat="47.593746828" lon="12.345752288">
        <ele>1528.6</ele>
        <time>2020-11-08T13:03:24</time>
      </trkpt>
      <trkpt lat="47.593773398" lon="12.345967032">
        <ele>1524.8</ele>
        <time>2020-11-08T13:03:42</time>
      </trkpt>
      <trkpt lat="47.593807680" lon="12.346022101">
        <ele>1523.8</ele>
        <time>2020-11-08T13:03:47</time>
      </trkpt>
      <trkpt lat="47.593796868" lon="12.346242377">
        <ele>1520.5</ele>
        <time>2020-11-08T13:04:02</time>
      </trkpt>
      <trkpt lat="47.593819248" lon="12.346369447">
        <ele>1519.0</ele>
        <time>2020-11-08T13:04:15</time>
      </trkpt>
      <trkpt lat="47.593791839" lon="12.346444717">
        <ele>1516.6</ele>
        <time>2020-11-08T13:04:23</time>
      </trkpt>
      <trkpt lat="47.593740458" lon="12.346488638">
        <ele>1515.7</ele>
        <time>2020-11-08T13:04:29</time>
      </trkpt>
      <trkpt lat="47.593663177" lon="12.346680500">
        <ele>1512.3</ele>
        <time>2020-11-08T13:04:43</time>
      </trkpt>
      <trkpt lat="47.593625793" lon="12.346694581">
        <ele>1511.8</ele>
        <time>2020-11-08T13:04:48</time>
      </trkpt>
      <trkpt lat="47.593553625" lon="12.346849982">
        <ele>1507.0</ele>
        <time>2020-11-08T13:05:06</time>
      </trkpt>
      <trkpt lat="47.593572987" lon="12.346886191">
        <ele>1506.5</ele>
        <time>2020-11-08T13:05:09</time>
      </trkpt>
      <trkpt lat="47.593570221" lon="12.347049974">
        <ele>1503.2</ele>
        <time>2020-11-08T13:05:21</time>
      </trkpt>
      <trkpt lat="47.593634259" lon="12.347174026">
        <ele>1499.8</ele>
        <time>2020-11-08T13:05:33</time>
      </trkpt>
      <trkpt lat="47.593635181" lon="12.347356249">
        <ele>1496.4</ele>
        <time>2020-11-08T13:05:49</time>
      </trkpt>
      <trkpt lat="47.593566868" lon="12.347658332">
        <ele>1494.0</ele>
        <time>2020-11-08T13:06:53</time>
      </trkpt>
      <trkpt lat="47.593393447" lon="12.347721783">
        <ele>1494.0</ele>
        <time>2020-11-08T13:07:16</time>
      </trkpt>
      <trkpt lat="47.593282638" lon="12.347920351">
        <ele>1491.1</ele>
        <time>2020-11-08T13:07:38</time>
      </trkpt>
      <trkpt lat="47.593209883" lon="12.347920099">
        <ele>1488.3</ele>
        <time>2020-11-08T13:07:54</time>
      </trkpt>
      <trkpt lat="47.593156910" lon="12.347970055">
        <ele>1485.8</ele>
        <time>2020-11-08T13:08:08</time>
      </trkpt>
      <trkpt lat="47.593106534" lon="12.348089330">
        <ele>1482.5</ele>
        <time>2020-11-08T13:08:21</time>
      </trkpt>
      <trkpt lat="47.593046101" lon="12.348137861">
        <ele>1479.6</ele>
        <time>2020-11-08T13:08:34</time>
      </trkpt>
      <trkpt lat="47.593011148" lon="12.348117326">
        <ele>1476.7</ele>
        <time>2020-11-08T13:08:42</time>
      </trkpt>
      <trkpt lat="47.592923306" lon="12.347940048">
        <ele>1470.0</ele>
        <time>2020-11-08T13:09:07</time>
      </trkpt>
      <trkpt lat="47.592808474" lon="12.347962679">
        <ele>1464.2</ele>
        <time>2020-11-08T13:09:31</time>
      </trkpt>
      <trkpt lat="47.592835547" lon="12.348304661">
        <ele>1458.0</ele>
        <time>2020-11-08T13:10:04</time>
      </trkpt>
      <trkpt lat="47.592764050" lon="12.348401388">
        <ele>1455.1</ele>
        <time>2020-11-08T13:10:16</time>
      </trkpt>
      <trkpt lat="47.592593646" lon="12.348542036">
        <ele>1451.7</ele>
        <time>2020-11-08T13:10:37</time>
      </trkpt>
      <trkpt lat="47.592507144" lon="12.348565087">
        <ele>1450.8</ele>
        <time>2020-11-08T13:10:51</time>
      </trkpt>
      <trkpt lat="47.592517035" lon="12.348531894">
        <ele>1448.8</ele>
        <time>2020-11-08T13:11:03</time>
      </trkpt>
      <trkpt lat="47.592442101" lon="12.348558381">
        <ele>1446.9</ele>
        <time>2020-11-08T13:11:16</time>
      </trkpt>
      <trkpt lat="47.592186369" lon="12.348712860">
        <ele>1437.8</ele>
        <time>2020-11-08T13:11:49</time>
      </trkpt>
      <trkpt lat="47.592047984" lon="12.348694503">
        <ele>1434.4</ele>
        <time>2020-11-08T13:12:18</time>
      </trkpt>
      <trkpt lat="47.591901803" lon="12.348794583">
        <ele>1425.3</ele>
        <time>2020-11-08T13:12:58</time>
      </trkpt>
      <trkpt lat="47.591646155" lon="12.348874379">
        <ele>1419.0</ele>
        <time>2020-11-08T13:13:23</time>
      </trkpt>
      <trkpt lat="47.591571892" lon="12.348936489">
        <ele>1417.6</ele>
        <time>2020-11-08T13:13:33</time>
      </trkpt>
      <trkpt lat="47.591415402" lon="12.348947302">
        <ele>1415.7</ele>
        <time>2020-11-08T13:13:49</time>
      </trkpt>
      <trkpt lat="47.591370810" lon="12.348976890">
        <ele>1415.2</ele>
        <time>2020-11-08T13:13:53</time>
      </trkpt>
      <trkpt lat="47.591233263" lon="12.348999186">
        <ele>1413.8</ele>
        <time>2020-11-08T13:14:08</time>
      </trkpt>
      <trkpt lat="47.591023715" lon="12.348981584">
        <ele>1408.5</ele>
        <time>2020-11-08T13:14:37</time>
      </trkpt>
      <trkpt lat="47.590886923" lon="12.349071354">
        <ele>1405.6</ele>
        <time>2020-11-08T13:14:49</time>
      </trkpt>
      <trkpt lat="47.590755997" lon="12.349265982">
        <ele>1403.2</ele>
        <time>2020-11-08T13:15:07</time>
      </trkpt>
      <trkpt lat="47.590660695" lon="12.349345945">
        <ele>1397.4</ele>
        <time>2020-11-08T13:15:35</time>
      </trkpt>
      <trkpt lat="47.590603111" lon="12.349340748">
        <ele>1394.5</ele>
        <time>2020-11-08T13:15:50</time>
      </trkpt>
      <trkpt lat="47.590590119" lon="12.349241171">
        <ele>1392.6</ele>
        <time>2020-11-08T13:15:59</time>
      </trkpt>
      <trkpt lat="47.590618031" lon="12.348955516">
        <ele>1387.3</ele>
        <time>2020-11-08T13:16:43</time>
      </trkpt>
      <trkpt lat="47.590620546" lon="12.348624179">
        <ele>1380.6</ele>
        <time>2020-11-08T13:17:08</time>
      </trkpt>
      <trkpt lat="47.590501355" lon="12.348523177">
        <ele>1375.3</ele>
        <time>2020-11-08T13:17:24</time>
      </trkpt>
      <trkpt lat="47.590503786" lon="12.348490991">
        <ele>1374.8</ele>
        <time>2020-11-08T13:17:29</time>
      </trkpt>
      <trkpt lat="47.590419799" lon="12.348471293">
        <ele>1372.4</ele>
        <time>2020-11-08T13:17:38</time>
      </trkpt>
      <trkpt lat="47.590253837" lon="12.348558297">
        <ele>1366.2</ele>
        <time>2020-11-08T13:18:00</time>
      </trkpt>
      <trkpt lat="47.590227434" lon="12.348486632">
        <ele>1363.8</ele>
        <time>2020-11-08T13:18:07</time>
      </trkpt>
      <trkpt lat="47.590141352" lon="12.348511107">
        <ele>1360.4</ele>
        <time>2020-11-08T13:18:19</time>
      </trkpt>
      <trkpt lat="47.590116542" lon="12.348536001">
        <ele>1359.9</ele>
        <time>2020-11-08T13:18:22</time>
      </trkpt>
      <trkpt lat="47.590107909" lon="12.348594843">
        <ele>1359.0</ele>
        <time>2020-11-08T13:18:26</time>
      </trkpt>
      <trkpt lat="47.590079745" lon="12.348631304">
        <ele>1358.0</ele>
        <time>2020-11-08T13:18:30</time>
      </trkpt>
      <trkpt lat="47.589933565" lon="12.348523596">
        <ele>1352.2</ele>
        <time>2020-11-08T13:18:54</time>
      </trkpt>
      <trkpt lat="47.589852679" lon="12.348581431">
        <ele>1347.9</ele>
        <time>2020-11-08T13:19:11</time>
      </trkpt>
      <trkpt lat="47.589817978" lon="12.348494092">
        <ele>1345.0</ele>
        <time>2020-11-08T13:19:25</time>
      </trkpt>
      <trkpt lat="47.589814542" lon="12.348385379">
        <ele>1342.6</ele>
        <time>2020-11-08T13:19:36</time>
      </trkpt>
      <trkpt lat="47.589783361" lon="12.348287059">
        <ele>1338.3</ele>
        <time>2020-11-08T13:19:51</time>
      </trkpt>
      <trkpt lat="47.589878747" lon="12.348076003">
        <ele>1331.6</ele>
        <time>2020-11-08T13:20:11</time>
      </trkpt>
      <trkpt lat="47.589883944" lon="12.348023867">
        <ele>1330.1</ele>
        <time>2020-11-08T13:20:17</time>
      </trkpt>
      <trkpt lat="47.590031633" lon="12.347852038">
        <ele>1325.8</ele>
        <time>2020-11-08T13:20:34</time>
      </trkpt>
      <trkpt lat="47.590240175" lon="12.347451719">
        <ele>1316.7</ele>
        <time>2020-11-08T13:21:15</time>
      </trkpt>
      <trkpt lat="47.590367580" lon="12.347335629">
        <ele>1315.2</ele>
        <time>2020-11-08T13:21:28</time>
      </trkpt>
      <trkpt lat="47.590410160" lon="12.347187018">
        <ele>1313.8</ele>
        <time>2020-11-08T13:21:43</time>
      </trkpt>
      <trkpt lat="47.590532955" lon="12.347080484">
        <ele>1310.9</ele>
        <time>2020-11-08T13:21:56</time>
      </trkpt>
      <trkpt lat="47.590536810" lon="12.346984260">
        <ele>1309.5</ele>
        <time>2020-11-08T13:22:02</time>
      </trkpt>
      <trkpt lat="47.590455758" lon="12.346667424">
        <ele>1308.0</ele>
        <time>2020-11-08T13:22:23</time>
      </trkpt>
      <trkpt lat="47.590496493" lon="12.346402723">
        <ele>1308.0</ele>
        <time>2020-11-08T13:22:41</time>
      </trkpt>
      <trkpt lat="47.590425331" lon="12.346235840">
        <ele>1305.6</ele>
        <time>2020-11-08T13:22:53</time>
      </trkpt>
      <trkpt lat="47.590424996" lon="12.346061245">
        <ele>1306.6</ele>
        <time>2020-11-08T13:23:04</time>
      </trkpt>
      <trkpt lat="47.590452069" lon="12.345975749">
        <ele>1306.6</ele>
        <time>2020-11-08T13:23:11</time>
      </trkpt>
      <trkpt lat="47.590439497" lon="12.345803082">
        <ele>1304.7</ele>
        <time>2020-11-08T13:23:21</time>
      </trkpt>
      <trkpt lat="47.590298178" lon="12.345474679">
        <ele>1301.8</ele>
        <time>2020-11-08T13:23:43</time>
      </trkpt>
      <trkpt lat="47.590020988" lon="12.345011830">
        <ele>1297.0</ele>
        <time>2020-11-08T13:24:16</time>
      </trkpt>
      <trkpt lat="47.590017635" lon="12.344939746">
        <ele>1296.0</ele>
        <time>2020-11-08T13:24:20</time>
      </trkpt>
      <trkpt lat="47.589876484" lon="12.344739418">
        <ele>1294.1</ele>
        <time>2020-11-08T13:24:37</time>
      </trkpt>
      <trkpt lat="47.589706751" lon="12.344553508">
        <ele>1292.6</ele>
        <time>2020-11-08T13:24:54</time>
      </trkpt>
      <trkpt lat="47.589658471" lon="12.344404981">
        <ele>1289.3</ele>
        <time>2020-11-08T13:25:23</time>
      </trkpt>
      <trkpt lat="47.589515811" lon="12.344105579">
        <ele>1286.9</ele>
        <time>2020-11-08T13:25:43</time>
      </trkpt>
      <trkpt lat="47.589350520" lon="12.343981359">
        <ele>1285.4</ele>
        <time>2020-11-08T13:25:59</time>
      </trkpt>
      <trkpt lat="47.589262929" lon="12.343970882">
        <ele>1283.0</ele>
        <time>2020-11-08T13:26:20</time>
      </trkpt>
      <trkpt lat="47.589208865" lon="12.343899552">
        <ele>1282.5</ele>
        <time>2020-11-08T13:26:27</time>
      </trkpt>
      <trkpt lat="47.589007784" lon="12.343713138">
        <ele>1279.2</ele>
        <time>2020-11-08T13:26:53</time>
      </trkpt>
      <trkpt lat="47.588865627" lon="12.343604006">
        <ele>1276.3</ele>
        <time>2020-11-08T13:27:11</time>
      </trkpt>
      <trkpt lat="47.588801673" lon="12.343580453">
        <ele>1272.0</ele>
        <time>2020-11-08T13:27:47</time>
      </trkpt>
      <trkpt lat="47.588762026" lon="12.343514906">
        <ele>1271.5</ele>
        <time>2020-11-08T13:27:55</time>
      </trkpt>
      <trkpt lat="47.588686338" lon="12.343590176">
        <ele>1269.1</ele>
        <time>2020-11-08T13:28:08</time>
      </trkpt>
      <trkpt lat="47.588641495" lon="12.343589924">
        <ele>1267.6</ele>
        <time>2020-11-08T13:28:24</time>
      </trkpt>
      <trkpt lat="47.588571086" lon="12.343789078">
        <ele>1263.3</ele>
        <time>2020-11-08T13:28:58</time>
      </trkpt>
      <trkpt lat="47.588535212" lon="12.343825456">
        <ele>1261.9</ele>
        <time>2020-11-08T13:29:04</time>
      </trkpt>
      <trkpt lat="47.588515515" lon="12.344040535">
        <ele>1259.0</ele>
        <time>2020-11-08T13:29:20</time>
      </trkpt>
      <trkpt lat="47.588532781" lon="12.344248323">
        <ele>1256.1</ele>
        <time>2020-11-08T13:29:33</time>
      </trkpt>
      <trkpt lat="47.588483496" lon="12.344279671">
        <ele>1254.2</ele>
        <time>2020-11-08T13:29:39</time>
      </trkpt>
      <trkpt lat="47.588440580" lon="12.344235163">
        <ele>1250.8</ele>
        <time>2020-11-08T13:29:49</time>
      </trkpt>
      <trkpt lat="47.588271433" lon="12.343901480">
        <ele>1245.5</ele>
        <time>2020-11-08T13:30:19</time>
      </trkpt>
      <trkpt lat="47.588218041" lon="12.343856888">
        <ele>1244.6</ele>
        <time>2020-11-08T13:30:26</time>
      </trkpt>
      <trkpt lat="47.588152159" lon="12.343937689">
        <ele>1241.2</ele>
        <time>2020-11-08T13:30:45</time>
      </trkpt>
      <trkpt lat="47.588055097" lon="12.344256537">
        <ele>1235.4</ele>
        <time>2020-11-08T13:32:08</time>
      </trkpt>
      <trkpt lat="47.588017294" lon="12.344279503">
        <ele>1234.5</ele>
        <time>2020-11-08T13:32:13</time>
      </trkpt>
      <trkpt lat="47.587906485" lon="12.344250334">
        <ele>1231.6</ele>
        <time>2020-11-08T13:32:26</time>
      </trkpt>
      <trkpt lat="47.587831048" lon="12.344289059">
        <ele>1228.7</ele>
        <time>2020-11-08T13:32:36</time>
      </trkpt>
      <trkpt lat="47.587709511" lon="12.344255028">
        <ele>1223.4</ele>
        <time>2020-11-08T13:32:54</time>
      </trkpt>
      <trkpt lat="47.587662823" lon="12.344419062">
        <ele>1219.6</ele>
        <time>2020-11-08T13:33:10</time>
      </trkpt>
      <trkpt lat="47.587544890" lon="12.344286209">
        <ele>1216.2</ele>
        <time>2020-11-08T13:33:25</time>
      </trkpt>
      <trkpt lat="47.587520415" lon="12.344301129">
        <ele>1215.2</ele>
        <time>2020-11-08T13:33:29</time>
      </trkpt>
      <trkpt lat="47.587504154" lon="12.344449237">
        <ele>1212.4</ele>
        <time>2020-11-08T13:33:40</time>
      </trkpt>
      <trkpt lat="47.587451516" lon="12.344520483">
        <ele>1210.4</ele>
        <time>2020-11-08T13:33:51</time>
      </trkpt>
      <trkpt lat="47.587318495" lon="12.344577145">
        <ele>1206.6</ele>
        <time>2020-11-08T13:34:06</time>
      </trkpt>
      <trkpt lat="47.587061422" lon="12.344417637">
        <ele>1199.9</ele>
        <time>2020-11-08T13:34:37</time>
      </trkpt>
      <trkpt lat="47.587055722" lon="12.344515286">
        <ele>1198.4</ele>
        <time>2020-11-08T13:34:45</time>
      </trkpt>
      <trkpt lat="47.586966958" lon="12.344574463">
        <ele>1195.1</ele>
        <time>2020-11-08T13:34:59</time>
      </trkpt>
      <trkpt lat="47.586967628" lon="12.344655851">
        <ele>1193.6</ele>
        <time>2020-11-08T13:35:05</time>
      </trkpt>
      <trkpt lat="47.586929910" lon="12.344819550">
        <ele>1190.2</ele>
        <time>2020-11-08T13:35:18</time>
      </trkpt>
      <trkpt lat="47.586885234" lon="12.344808318">
        <ele>1188.8</ele>
        <time>2020-11-08T13:35:23</time>
      </trkpt>
      <trkpt lat="47.586671580" lon="12.344569601">
        <ele>1181.6</ele>
        <time>2020-11-08T13:35:50</time>
      </trkpt>
      <trkpt lat="47.586669233" lon="12.344364412">
        <ele>1178.2</ele>
        <time>2020-11-08T13:36:03</time>
      </trkpt>
      <trkpt lat="47.586722961" lon="12.344136257">
        <ele>1173.4</ele>
        <time>2020-11-08T13:36:20</time>
      </trkpt>
      <trkpt lat="47.586801499" lon="12.343890835">
        <ele>1167.2</ele>
        <time>2020-11-08T13:36:45</time>
      </trkpt>
      <trkpt lat="47.586858328" lon="12.343454137">
        <ele>1157.6</ele>
        <time>2020-11-08T13:37:22</time>
      </trkpt>
      <trkpt lat="47.586838547" lon="12.343272334">
        <ele>1151.3</ele>
        <time>2020-11-08T13:37:44</time>
      </trkpt>
      <trkpt lat="47.586805522" lon="12.343194298">
        <ele>1148.4</ele>
        <time>2020-11-08T13:37:57</time>
      </trkpt>
      <trkpt lat="47.586741485" lon="12.343234280">
        <ele>1145.5</ele>
        <time>2020-11-08T13:38:10</time>
      </trkpt>
      <trkpt lat="47.586697983" lon="12.343168734">
        <ele>1142.7</ele>
        <time>2020-11-08T13:38:24</time>
      </trkpt>
      <trkpt lat="47.586802924" lon="12.342896154">
        <ele>1136.4</ele>
        <time>2020-11-08T13:38:50</time>
      </trkpt>
      <trkpt lat="47.586769648" lon="12.342848042">
        <ele>1133.5</ele>
        <time>2020-11-08T13:39:01</time>
      </trkpt>
      <trkpt lat="47.586531434" lon="12.342784088">
        <ele>1124.9</ele>
        <time>2020-11-08T13:39:43</time>
      </trkpt>
      <trkpt lat="47.586503523" lon="12.342726588">
        <ele>1122.0</ele>
        <time>2020-11-08T13:39:58</time>
      </trkpt>
      <trkpt lat="47.586340494" lon="12.342585521">
        <ele>1116.2</ele>
        <time>2020-11-08T13:40:31</time>
      </trkpt>
      <trkpt lat="47.586140921" lon="12.342753410">
        <ele>1111.9</ele>
        <time>2020-11-08T13:40:52</time>
      </trkpt>
      <trkpt lat="47.585965572" lon="12.342808479">
        <ele>1109.0</ele>
        <time>2020-11-08T13:41:06</time>
      </trkpt>
      <trkpt lat="47.585800951" lon="12.342822812">
        <ele>1106.6</ele>
        <time>2020-11-08T13:41:24</time>
      </trkpt>
      <trkpt lat="47.585687125" lon="12.342761289">
        <ele>1103.2</ele>
        <time>2020-11-08T13:41:34</time>
      </trkpt>
      <trkpt lat="47.585598445" lon="12.342626173">
        <ele>1099.9</ele>
        <time>2020-11-08T13:41:47</time>
      </trkpt>
      <trkpt lat="47.585465508" lon="12.342500528">
        <ele>1096.0</ele>
        <time>2020-11-08T13:42:01</time>
      </trkpt>
      <trkpt lat="47.585092094" lon="12.342263237">
        <ele>1086.4</ele>
        <time>2020-11-08T13:42:41</time>
      </trkpt>
      <trkpt lat="47.585012214" lon="12.342235660">
        <ele>1083.5</ele>
        <time>2020-11-08T13:42:53</time>
      </trkpt>
      <trkpt lat="47.584977597" lon="12.342185955">
        <ele>1081.6</ele>
        <time>2020-11-08T13:42:58</time>
      </trkpt>
      <trkpt lat="47.584935855" lon="12.342175478">
        <ele>1079.2</ele>
        <time>2020-11-08T13:43:06</time>
      </trkpt>
      <trkpt lat="47.584867710" lon="12.342230128">
        <ele>1075.4</ele>
        <time>2020-11-08T13:43:18</time>
      </trkpt>
      <trkpt lat="47.584795710" lon="12.342144297">
        <ele>1072.0</ele>
        <time>2020-11-08T13:43:31</time>
      </trkpt>
      <trkpt lat="47.584746592" lon="12.342043882">
        <ele>1069.1</ele>
        <time>2020-11-08T13:43:44</time>
      </trkpt>
      <trkpt lat="47.584672496" lon="12.341966601">
        <ele>1065.8</ele>
        <time>2020-11-08T13:43:56</time>
      </trkpt>
      <trkpt lat="47.584573338" lon="12.341750264">
        <ele>1059.5</ele>
        <time>2020-11-08T13:44:18</time>
      </trkpt>
      <trkpt lat="47.584508713" lon="12.342050001">
        <ele>1052.8</ele>
        <time>2020-11-08T13:44:43</time>
      </trkpt>
      <trkpt lat="47.584498320" lon="12.342269272">
        <ele>1045.6</ele>
        <time>2020-11-08T13:45:06</time>
      </trkpt>
      <trkpt lat="47.584376866" lon="12.342127617">
        <ele>1039.8</ele>
        <time>2020-11-08T13:45:27</time>
      </trkpt>
      <trkpt lat="47.584346188" lon="12.342024185">
        <ele>1036.4</ele>
        <time>2020-11-08T13:45:38</time>
      </trkpt>
      <trkpt lat="47.584278630" lon="12.341982778">
        <ele>1033.1</ele>
        <time>2020-11-08T13:45:50</time>
      </trkpt>
      <trkpt lat="47.584237223" lon="12.341917064">
        <ele>1030.2</ele>
        <time>2020-11-08T13:46:00</time>
      </trkpt>
      <trkpt lat="47.584179137" lon="12.341948496">
        <ele>1026.8</ele>
        <time>2020-11-08T13:46:12</time>
      </trkpt>
      <trkpt lat="47.584129684" lon="12.341850931">
        <ele>1023.9</ele>
        <time>2020-11-08T13:46:23</time>
      </trkpt>
      <trkpt lat="47.584066903" lon="12.341655884">
        <ele>1017.7</ele>
        <time>2020-11-08T13:46:45</time>
      </trkpt>
      <trkpt lat="47.583958525" lon="12.341659656">
        <ele>1011.0</ele>
        <time>2020-11-08T13:47:08</time>
      </trkpt>
      <trkpt lat="47.583941510" lon="12.341556475">
        <ele>1008.1</ele>
        <time>2020-11-08T13:47:20</time>
      </trkpt>
      <trkpt lat="47.583883423" lon="12.341580698">
        <ele>1005.2</ele>
        <time>2020-11-08T13:47:32</time>
      </trkpt>
      <trkpt lat="47.583821481" lon="12.341568628">
        <ele>1001.8</ele>
        <time>2020-11-08T13:47:44</time>
      </trkpt>
      <trkpt lat="47.583758114" lon="12.341309041">
        <ele>995.6</ele>
        <time>2020-11-08T13:48:09</time>
      </trkpt>
      <trkpt lat="47.583602378" lon="12.341121873">
        <ele>988.9</ele>
        <time>2020-11-08T13:48:38</time>
      </trkpt>
      <trkpt lat="47.583517218" lon="12.341099745">
        <ele>986.0</ele>
        <time>2020-11-08T13:48:51</time>
      </trkpt>
      <trkpt lat="47.583486540" lon="12.341130674">
        <ele>984.0</ele>
        <time>2020-11-08T13:48:59</time>
      </trkpt>
      <trkpt lat="47.583315885" lon="12.341119861">
        <ele>979.7</ele>
        <time>2020-11-08T13:49:26</time>
      </trkpt>
      <trkpt lat="47.583216559" lon="12.341151713">
        <ele>977.3</ele>
        <time>2020-11-08T13:49:37</time>
      </trkpt>
      <trkpt lat="47.583125951" lon="12.341090441">
        <ele>975.4</ele>
        <time>2020-11-08T13:49:47</time>
      </trkpt>
      <trkpt lat="47.583064344" lon="12.341088010">
        <ele>974.4</ele>
        <time>2020-11-08T13:49:52</time>
      </trkpt>
      <trkpt lat="47.582905926" lon="12.341195131">
        <ele>970.1</ele>
        <time>2020-11-08T13:50:20</time>
      </trkpt>
      <trkpt lat="47.582877595" lon="12.341225809">
        <ele>969.6</ele>
        <time>2020-11-08T13:50:32</time>
      </trkpt>
      <trkpt lat="47.582847923" lon="12.341304095">
        <ele>969.1</ele>
        <time>2020-11-08T13:50:40</time>
      </trkpt>
      <trkpt lat="47.582636364" lon="12.341285991">
        <ele>963.9</ele>
        <time>2020-11-08T13:51:05</time>
      </trkpt>
      <trkpt lat="47.582523962" lon="12.341368971">
        <ele>960.5</ele>
        <time>2020-11-08T13:51:19</time>
      </trkpt>
      <trkpt lat="47.582483729" lon="12.341422867">
        <ele>959.5</ele>
        <time>2020-11-08T13:51:24</time>
      </trkpt>
      <trkpt lat="47.582368562" lon="12.341468381">
        <ele>957.1</ele>
        <time>2020-11-08T13:51:38</time>
      </trkpt>
      <trkpt lat="47.582107130" lon="12.341518756">
        <ele>951.4</ele>
        <time>2020-11-08T13:52:03</time>
      </trkpt>
      <trkpt lat="47.582067819" lon="12.341503920">
        <ele>950.9</ele>
        <time>2020-11-08T13:52:07</time>
      </trkpt>
      <trkpt lat="47.581470944" lon="12.341564437">
        <ele>938.4</ele>
        <time>2020-11-08T13:53:06</time>
      </trkpt>
      <trkpt lat="47.581440015" lon="12.341540297">
        <ele>937.4</ele>
        <time>2020-11-08T13:53:11</time>
      </trkpt>
      <trkpt lat="47.581366254" lon="12.341549937">
        <ele>935.5</ele>
        <time>2020-11-08T13:53:18</time>
      </trkpt>
      <trkpt lat="47.581313448" lon="12.341614477">
        <ele>934.5</ele>
        <time>2020-11-08T13:53:24</time>
      </trkpt>
      <trkpt lat="47.581144469" lon="12.341715982">
        <ele>931.2</ele>
        <time>2020-11-08T13:53:41</time>
      </trkpt>
      <trkpt lat="47.581019662" lon="12.341764849">
        <ele>927.8</ele>
        <time>2020-11-08T13:54:04</time>
      </trkpt>
      <trkpt lat="47.580979597" lon="12.341706175">
        <ele>927.8</ele>
        <time>2020-11-08T13:54:15</time>
      </trkpt>
      <trkpt lat="47.580952356" lon="12.341553960">
        <ele>926.4</ele>
        <time>2020-11-08T13:54:25</time>
      </trkpt>
      <trkpt lat="47.581006754" lon="12.341206698">
        <ele>927.8</ele>
        <time>2020-11-08T13:54:48</time>
      </trkpt>
      <trkpt lat="47.581027206" lon="12.340900339">
        <ele>928.8</ele>
        <time>2020-11-08T13:55:08</time>
      </trkpt>
      <trkpt lat="47.581012538" lon="12.340546036">
        <ele>930.2</ele>
        <time>2020-11-08T13:55:31</time>
      </trkpt>
      <trkpt lat="47.580984123" lon="12.340256693">
        <ele>931.2</ele>
        <time>2020-11-08T13:55:52</time>
      </trkpt>
      <trkpt lat="47.580962665" lon="12.339604916">
        <ele>934.1</ele>
        <time>2020-11-08T13:56:37</time>
      </trkpt>
      <trkpt lat="47.580902567" lon="12.338984571">
        <ele>936.5</ele>
        <time>2020-11-08T13:57:20</time>
      </trkpt>
      <trkpt lat="47.580862334" lon="12.338721715">
        <ele>937.4</ele>
        <time>2020-11-08T13:57:40</time>
      </trkpt>
      <trkpt lat="47.580810199" lon="12.338455841">
        <ele>939.8</ele>
        <time>2020-11-08T13:58:01</time>
      </trkpt>
      <trkpt lat="47.580729062" lon="12.338262806">
        <ele>941.3</ele>
        <time>2020-11-08T13:58:18</time>
      </trkpt>
      <trkpt lat="47.580469558" lon="12.337818062">
        <ele>944.6</ele>
        <time>2020-11-08T13:59:02</time>
      </trkpt>
      <trkpt lat="47.580343913" lon="12.337522684">
        <ele>947.0</ele>
        <time>2020-11-08T13:59:24</time>
      </trkpt>
      <trkpt lat="47.580272499" lon="12.337236442">
        <ele>949.4</ele>
        <time>2020-11-08T13:59:44</time>
      </trkpt>
      <trkpt lat="47.580208546" lon="12.336938884">
        <ele>950.9</ele>
        <time>2020-11-08T14:00:05</time>
      </trkpt>
      <trkpt lat="47.580204271" lon="12.336733276">
        <ele>952.8</ele>
        <time>2020-11-08T14:00:19</time>
      </trkpt>
      <trkpt lat="47.580206282" lon="12.335958285">
        <ele>959.5</ele>
        <time>2020-11-08T14:01:13</time>
      </trkpt>
      <trkpt lat="47.580235368" lon="12.335697273">
        <ele>962.4</ele>
        <time>2020-11-08T14:01:32</time>
      </trkpt>
      <trkpt lat="47.580240145" lon="12.335421340">
        <ele>965.3</ele>
        <time>2020-11-08T14:01:52</time>
      </trkpt>
      <trkpt lat="47.580190776" lon="12.335137026">
        <ele>968.2</ele>
        <time>2020-11-08T14:02:14</time>
      </trkpt>
      <trkpt lat="47.580102514" lon="12.334866123">
        <ele>971.5</ele>
        <time>2020-11-08T14:02:37</time>
      </trkpt>
      <trkpt lat="47.579919118" lon="12.334401598">
        <ele>976.8</ele>
        <time>2020-11-08T14:03:18</time>
      </trkpt>
      <trkpt lat="47.579818787" lon="12.334045535">
        <ele>981.2</ele>
        <time>2020-11-08T14:03:56</time>
      </trkpt>
      <trkpt lat="47.579859523" lon="12.334047966">
        <ele>981.2</ele>
        <time>2020-11-08T14:04:00</time>
      </trkpt>
      <trkpt lat="47.580286330" lon="12.334320126">
        <ele>984.5</ele>
        <time>2020-11-08T14:04:43</time>
      </trkpt>
      <trkpt lat="47.580900220" lon="12.334605614">
        <ele>991.7</ele>
        <time>2020-11-08T14:05:46</time>
      </trkpt>
      <trkpt lat="47.581085879" lon="12.334770234">
        <ele>993.7</ele>
        <time>2020-11-08T14:06:08</time>
      </trkpt>
      <trkpt lat="47.581209512" lon="12.335059661">
        <ele>996.5</ele>
        <time>2020-11-08T14:06:31</time>
      </trkpt>
      <trkpt lat="47.581369439" lon="12.335298043">
        <ele>999.4</ele>
        <time>2020-11-08T14:06:54</time>
      </trkpt>
      <trkpt lat="47.581457701" lon="12.335208440">
        <ele>999.9</ele>
        <time>2020-11-08T14:07:05</time>
      </trkpt>
      <trkpt lat="47.581203226" lon="12.333802627">
        <ele>1011.0</ele>
        <time>2020-11-08T14:08:51</time>
      </trkpt>
      <trkpt lat="47.581108343" lon="12.333559720">
        <ele>1013.4</ele>
        <time>2020-11-08T14:09:13</time>
      </trkpt>
      <trkpt lat="47.580992086" lon="12.333340701">
        <ele>1015.8</ele>
        <time>2020-11-08T14:09:33</time>
      </trkpt>
      <trkpt lat="47.580760578" lon="12.332816329">
        <ele>1019.6</ele>
        <time>2020-11-08T14:10:15</time>
      </trkpt>
      <trkpt lat="47.580451537" lon="12.332369238">
        <ele>1021.1</ele>
        <time>2020-11-08T14:10:55</time>
      </trkpt>
      <trkpt lat="47.580292365" lon="12.332199672">
        <ele>1021.5</ele>
        <time>2020-11-08T14:11:15</time>
      </trkpt>
      <trkpt lat="47.580163367" lon="12.331614783">
        <ele>1024.9</ele>
        <time>2020-11-08T14:11:59</time>
      </trkpt>
      <trkpt lat="47.580096563" lon="12.331208177">
        <ele>1025.4</ele>
        <time>2020-11-08T14:12:32</time>
      </trkpt>
      <trkpt lat="47.580035292" lon="12.331123604">
        <ele>1025.9</ele>
        <time>2020-11-08T14:12:49</time>
      </trkpt>
      <trkpt lat="47.580031771" lon="12.331103906">
        <ele>1025.4</ele>
        <time>2020-11-08T14:19:33</time>
      </trkpt>
    </trkseg>
  </trk>
</gpx>
